<?xml version="1.0" encoding="UTF-8" standalone="no" ?>
<gpx xmlns="http://www.topografix.com/GPX/1/1" xmlns:xsi="http://www.w3.org/2001/XMLSchema-instance" xsi:schemaLocation="http://www.topografix.com/GPX/1/1 http://www.topografix.com/GPX/1/1/gpx.xsd" version="1.1" creator="VisuGPX - https://www.visugpx.com">
  <metadata>
    <name>Grands, boucle du 07/12/2013</name>
    <desc><![CDATA[Boucle des Grands]]></desc>
  </metadata>
  <trk>
    <name><![CDATA[07-DEC-13 boucle des grands]]></name>
    <trkseg>
      <trkpt lat="43.00734" lon="-0.09501">
        <ele>435.13</ele>
        <time>2013-12-07T13:10:01Z</time>
      </trkpt>
      <trkpt lat="43.00736" lon="-0.09501">
        <ele>438.02</ele>
        <time>2013-12-07T13:10:24Z</time>
      </trkpt>
      <trkpt lat="43.00738" lon="-0.095">
        <ele>437.06</ele>
        <time>2013-12-07T13:10:54Z</time>
      </trkpt>
      <trkpt lat="43.00739" lon="-0.095">
        <ele>437.54</ele>
        <time>2013-12-07T13:11:13Z</time>
      </trkpt>
      <trkpt lat="43.00723" lon="-0.09519">
        <ele>437.54</ele>
        <time>2013-12-07T13:11:23Z</time>
      </trkpt>
      <trkpt lat="43.00711" lon="-0.0955">
        <ele>438.98</ele>
        <time>2013-12-07T13:11:35Z</time>
      </trkpt>
      <trkpt lat="43.00708" lon="-0.09588">
        <ele>439.94</ele>
        <time>2013-12-07T13:11:47Z</time>
      </trkpt>
      <trkpt lat="43.00706" lon="-0.09635">
        <ele>441.38</ele>
        <time>2013-12-07T13:12:00Z</time>
      </trkpt>
      <trkpt lat="43.00701" lon="-0.09688">
        <ele>442.34</ele>
        <time>2013-12-07T13:12:14Z</time>
      </trkpt>
      <trkpt lat="43.00698" lon="-0.09736">
        <ele>443.31</ele>
        <time>2013-12-07T13:12:27Z</time>
      </trkpt>
      <trkpt lat="43.00698" lon="-0.09748">
        <ele>443.31</ele>
        <time>2013-12-07T13:12:30Z</time>
      </trkpt>
      <trkpt lat="43.00725" lon="-0.09766">
        <ele>443.31</ele>
        <time>2013-12-07T13:12:40Z</time>
      </trkpt>
      <trkpt lat="43.00772" lon="-0.09783">
        <ele>442.34</ele>
        <time>2013-12-07T13:12:54Z</time>
      </trkpt>
      <trkpt lat="43.00789" lon="-0.09791">
        <ele>441.86</ele>
        <time>2013-12-07T13:12:59Z</time>
      </trkpt>
      <trkpt lat="43.00839" lon="-0.0981">
        <ele>440.42</ele>
        <time>2013-12-07T13:13:13Z</time>
      </trkpt>
      <trkpt lat="43.00873" lon="-0.09823">
        <ele>440.42</ele>
        <time>2013-12-07T13:13:25Z</time>
      </trkpt>
      <trkpt lat="43.00877" lon="-0.09826">
        <ele>439.94</ele>
        <time>2013-12-07T13:13:30Z</time>
      </trkpt>
      <trkpt lat="43.00878" lon="-0.09841">
        <ele>440.42</ele>
        <time>2013-12-07T13:13:35Z</time>
      </trkpt>
      <trkpt lat="43.00887" lon="-0.09847">
        <ele>442.34</ele>
        <time>2013-12-07T13:13:40Z</time>
      </trkpt>
      <trkpt lat="43.0089" lon="-0.09848">
        <ele>442.82</ele>
        <time>2013-12-07T13:13:42Z</time>
      </trkpt>
      <trkpt lat="43.00888" lon="-0.09851">
        <ele>442.82</ele>
        <time>2013-12-07T13:13:46Z</time>
      </trkpt>
      <trkpt lat="43.00873" lon="-0.0985">
        <ele>445.23</ele>
        <time>2013-12-07T13:13:54Z</time>
      </trkpt>
      <trkpt lat="43.00872" lon="-0.09858">
        <ele>446.67</ele>
        <time>2013-12-07T13:13:59Z</time>
      </trkpt>
      <trkpt lat="43.00879" lon="-0.09863">
        <ele>448.11</ele>
        <time>2013-12-07T13:14:07Z</time>
      </trkpt>
      <trkpt lat="43.00873" lon="-0.09863">
        <ele>449.07</ele>
        <time>2013-12-07T13:14:11Z</time>
      </trkpt>
      <trkpt lat="43.00876" lon="-0.09863">
        <ele>450.52</ele>
        <time>2013-12-07T13:14:16Z</time>
      </trkpt>
      <trkpt lat="43.00879" lon="-0.09863">
        <ele>450.52</ele>
        <time>2013-12-07T13:14:18Z</time>
      </trkpt>
      <trkpt lat="43.00881" lon="-0.09867">
        <ele>451.48</ele>
        <time>2013-12-07T13:14:22Z</time>
      </trkpt>
      <trkpt lat="43.00875" lon="-0.09867">
        <ele>452.92</ele>
        <time>2013-12-07T13:14:28Z</time>
      </trkpt>
      <trkpt lat="43.00865" lon="-0.0987">
        <ele>453.4</ele>
        <time>2013-12-07T13:14:38Z</time>
      </trkpt>
      <trkpt lat="43.00858" lon="-0.09873">
        <ele>453.88</ele>
        <time>2013-12-07T13:14:44Z</time>
      </trkpt>
      <trkpt lat="43.00856" lon="-0.09875">
        <ele>453.88</ele>
        <time>2013-12-07T13:14:46Z</time>
      </trkpt>
      <trkpt lat="43.00839" lon="-0.09879">
        <ele>455.32</ele>
        <time>2013-12-07T13:15:02Z</time>
      </trkpt>
      <trkpt lat="43.00838" lon="-0.09879">
        <ele>454.84</ele>
        <time>2013-12-07T13:15:03Z</time>
      </trkpt>
      <trkpt lat="43.00826" lon="-0.09886">
        <ele>456.28</ele>
        <time>2013-12-07T13:15:10Z</time>
      </trkpt>
      <trkpt lat="43.00802" lon="-0.09922">
        <ele>456.76</ele>
        <time>2013-12-07T13:15:25Z</time>
      </trkpt>
      <trkpt lat="43.00789" lon="-0.09955">
        <ele>458.69</ele>
        <time>2013-12-07T13:15:36Z</time>
      </trkpt>
      <trkpt lat="43.00788" lon="-0.0996">
        <ele>458.69</ele>
        <time>2013-12-07T13:15:38Z</time>
      </trkpt>
      <trkpt lat="43.00791" lon="-0.09965">
        <ele>459.17</ele>
        <time>2013-12-07T13:15:42Z</time>
      </trkpt>
      <trkpt lat="43.008" lon="-0.09962">
        <ele>459.17</ele>
        <time>2013-12-07T13:15:46Z</time>
      </trkpt>
      <trkpt lat="43.00834" lon="-0.09958">
        <ele>459.17</ele>
        <time>2013-12-07T13:15:58Z</time>
      </trkpt>
      <trkpt lat="43.00847" lon="-0.09993">
        <ele>461.57</ele>
        <time>2013-12-07T13:16:09Z</time>
      </trkpt>
      <trkpt lat="43.00858" lon="-0.10034">
        <ele>461.57</ele>
        <time>2013-12-07T13:16:20Z</time>
      </trkpt>
      <trkpt lat="43.00852" lon="-0.10047">
        <ele>461.57</ele>
        <time>2013-12-07T13:16:24Z</time>
      </trkpt>
      <trkpt lat="43.00819" lon="-0.10062">
        <ele>461.09</ele>
        <time>2013-12-07T13:16:35Z</time>
      </trkpt>
      <trkpt lat="43.00764" lon="-0.10069">
        <ele>462.05</ele>
        <time>2013-12-07T13:16:51Z</time>
      </trkpt>
      <trkpt lat="43.00722" lon="-0.10073">
        <ele>462.53</ele>
        <time>2013-12-07T13:17:04Z</time>
      </trkpt>
      <trkpt lat="43.00694" lon="-0.10088">
        <ele>463.97</ele>
        <time>2013-12-07T13:17:15Z</time>
      </trkpt>
      <trkpt lat="43.00685" lon="-0.10116">
        <ele>463.97</ele>
        <time>2013-12-07T13:17:24Z</time>
      </trkpt>
      <trkpt lat="43.00673" lon="-0.10124">
        <ele>463.49</ele>
        <time>2013-12-07T13:17:28Z</time>
      </trkpt>
      <trkpt lat="43.00624" lon="-0.10123">
        <ele>463.97</ele>
        <time>2013-12-07T13:17:42Z</time>
      </trkpt>
      <trkpt lat="43.00604" lon="-0.10123">
        <ele>464.45</ele>
        <time>2013-12-07T13:17:47Z</time>
      </trkpt>
      <trkpt lat="43.00583" lon="-0.10109">
        <ele>464.93</ele>
        <time>2013-12-07T13:17:56Z</time>
      </trkpt>
      <trkpt lat="43.00582" lon="-0.10109">
        <ele>465.42</ele>
        <time>2013-12-07T13:17:57Z</time>
      </trkpt>
      <trkpt lat="43.00578" lon="-0.10142">
        <ele>465.9</ele>
        <time>2013-12-07T13:18:05Z</time>
      </trkpt>
      <trkpt lat="43.00564" lon="-0.10153">
        <ele>467.82</ele>
        <time>2013-12-07T13:18:12Z</time>
      </trkpt>
      <trkpt lat="43.00564" lon="-0.10155">
        <ele>467.82</ele>
        <time>2013-12-07T13:18:13Z</time>
      </trkpt>
      <trkpt lat="43.00563" lon="-0.10155">
        <ele>467.82</ele>
        <time>2013-12-07T13:18:14Z</time>
      </trkpt>
      <trkpt lat="43.00548" lon="-0.10161">
        <ele>468.78</ele>
        <time>2013-12-07T13:18:22Z</time>
      </trkpt>
      <trkpt lat="43.00549" lon="-0.10169">
        <ele>469.74</ele>
        <time>2013-12-07T13:18:26Z</time>
      </trkpt>
      <trkpt lat="43.0057" lon="-0.10171">
        <ele>472.14</ele>
        <time>2013-12-07T13:18:39Z</time>
      </trkpt>
      <trkpt lat="43.0058" lon="-0.10172">
        <ele>474.55</ele>
        <time>2013-12-07T13:18:45Z</time>
      </trkpt>
      <trkpt lat="43.00593" lon="-0.10181">
        <ele>475.99</ele>
        <time>2013-12-07T13:18:53Z</time>
      </trkpt>
      <trkpt lat="43.00612" lon="-0.10188">
        <ele>479.35</ele>
        <time>2013-12-07T13:19:07Z</time>
      </trkpt>
      <trkpt lat="43.00628" lon="-0.10205">
        <ele>482.24</ele>
        <time>2013-12-07T13:19:20Z</time>
      </trkpt>
      <trkpt lat="43.0063" lon="-0.10206">
        <ele>482.72</ele>
        <time>2013-12-07T13:19:22Z</time>
      </trkpt>
      <trkpt lat="43.0064" lon="-0.10217">
        <ele>485.6</ele>
        <time>2013-12-07T13:19:33Z</time>
      </trkpt>
      <trkpt lat="43.00641" lon="-0.10221">
        <ele>485.6</ele>
        <time>2013-12-07T13:19:35Z</time>
      </trkpt>
      <trkpt lat="43.00643" lon="-0.10234">
        <ele>487.05</ele>
        <time>2013-12-07T13:19:43Z</time>
      </trkpt>
      <trkpt lat="43.00636" lon="-0.10246">
        <ele>487.05</ele>
        <time>2013-12-07T13:19:51Z</time>
      </trkpt>
      <trkpt lat="43.00635" lon="-0.10249">
        <ele>488.01</ele>
        <time>2013-12-07T13:19:53Z</time>
      </trkpt>
      <trkpt lat="43.00633" lon="-0.10267">
        <ele>488.97</ele>
        <time>2013-12-07T13:20:01Z</time>
      </trkpt>
      <trkpt lat="43.00619" lon="-0.10297">
        <ele>491.37</ele>
        <time>2013-12-07T13:20:15Z</time>
      </trkpt>
      <trkpt lat="43.00607" lon="-0.10327">
        <ele>493.77</ele>
        <time>2013-12-07T13:20:30Z</time>
      </trkpt>
      <trkpt lat="43.00593" lon="-0.10348">
        <ele>496.18</ele>
        <time>2013-12-07T13:20:43Z</time>
      </trkpt>
      <trkpt lat="43.00579" lon="-0.1037">
        <ele>499.54</ele>
        <time>2013-12-07T13:20:55Z</time>
      </trkpt>
      <trkpt lat="43.00567" lon="-0.10389">
        <ele>502.91</ele>
        <time>2013-12-07T13:21:06Z</time>
      </trkpt>
      <trkpt lat="43.00566" lon="-0.1039">
        <ele>502.91</ele>
        <time>2013-12-07T13:21:07Z</time>
      </trkpt>
      <trkpt lat="43.00559" lon="-0.10408">
        <ele>505.31</ele>
        <time>2013-12-07T13:21:18Z</time>
      </trkpt>
      <trkpt lat="43.00557" lon="-0.10412">
        <ele>505.79</ele>
        <time>2013-12-07T13:21:21Z</time>
      </trkpt>
      <trkpt lat="43.00555" lon="-0.10418">
        <ele>507.23</ele>
        <time>2013-12-07T13:21:25Z</time>
      </trkpt>
      <trkpt lat="43.00547" lon="-0.10446">
        <ele>510.6</ele>
        <time>2013-12-07T13:21:40Z</time>
      </trkpt>
      <trkpt lat="43.00547" lon="-0.10447">
        <ele>510.6</ele>
        <time>2013-12-07T13:21:41Z</time>
      </trkpt>
      <trkpt lat="43.00542" lon="-0.10454">
        <ele>512.04</ele>
        <time>2013-12-07T13:21:46Z</time>
      </trkpt>
      <trkpt lat="43.00536" lon="-0.10461">
        <ele>512.52</ele>
        <time>2013-12-07T13:21:51Z</time>
      </trkpt>
      <trkpt lat="43.00518" lon="-0.10475">
        <ele>514.92</ele>
        <time>2013-12-07T13:22:03Z</time>
      </trkpt>
      <trkpt lat="43.00495" lon="-0.1049">
        <ele>517.33</ele>
        <time>2013-12-07T13:22:17Z</time>
      </trkpt>
      <trkpt lat="43.00472" lon="-0.10504">
        <ele>518.77</ele>
        <time>2013-12-07T13:22:29Z</time>
      </trkpt>
      <trkpt lat="43.00442" lon="-0.10535">
        <ele>519.25</ele>
        <time>2013-12-07T13:22:44Z</time>
      </trkpt>
      <trkpt lat="43.00439" lon="-0.10539">
        <ele>519.73</ele>
        <time>2013-12-07T13:22:46Z</time>
      </trkpt>
      <trkpt lat="43.00441" lon="-0.10545">
        <ele>520.21</ele>
        <time>2013-12-07T13:22:51Z</time>
      </trkpt>
      <trkpt lat="43.00472" lon="-0.10515">
        <ele>522.61</ele>
        <time>2013-12-07T13:23:08Z</time>
      </trkpt>
      <trkpt lat="43.00503" lon="-0.10516">
        <ele>525.5</ele>
        <time>2013-12-07T13:23:23Z</time>
      </trkpt>
      <trkpt lat="43.00528" lon="-0.10521">
        <ele>528.86</ele>
        <time>2013-12-07T13:23:35Z</time>
      </trkpt>
      <trkpt lat="43.00553" lon="-0.10527">
        <ele>531.75</ele>
        <time>2013-12-07T13:23:49Z</time>
      </trkpt>
      <trkpt lat="43.0058" lon="-0.10522">
        <ele>534.63</ele>
        <time>2013-12-07T13:24:03Z</time>
      </trkpt>
      <trkpt lat="43.00599" lon="-0.10497">
        <ele>536.07</ele>
        <time>2013-12-07T13:24:17Z</time>
      </trkpt>
      <trkpt lat="43.00613" lon="-0.10471">
        <ele>538.48</ele>
        <time>2013-12-07T13:24:30Z</time>
      </trkpt>
      <trkpt lat="43.00625" lon="-0.10469">
        <ele>540.4</ele>
        <time>2013-12-07T13:24:37Z</time>
      </trkpt>
      <trkpt lat="43.00653" lon="-0.10472">
        <ele>542.8</ele>
        <time>2013-12-07T13:24:50Z</time>
      </trkpt>
      <trkpt lat="43.00676" lon="-0.10469">
        <ele>544.72</ele>
        <time>2013-12-07T13:25:02Z</time>
      </trkpt>
      <trkpt lat="43.00702" lon="-0.10462">
        <ele>547.61</ele>
        <time>2013-12-07T13:25:16Z</time>
      </trkpt>
      <trkpt lat="43.00725" lon="-0.10455">
        <ele>550.01</ele>
        <time>2013-12-07T13:25:29Z</time>
      </trkpt>
      <trkpt lat="43.00755" lon="-0.1046">
        <ele>551.93</ele>
        <time>2013-12-07T13:25:43Z</time>
      </trkpt>
      <trkpt lat="43.00787" lon="-0.10465">
        <ele>554.82</ele>
        <time>2013-12-07T13:25:58Z</time>
      </trkpt>
      <trkpt lat="43.0082" lon="-0.10464">
        <ele>557.22</ele>
        <time>2013-12-07T13:26:13Z</time>
      </trkpt>
      <trkpt lat="43.00845" lon="-0.10463">
        <ele>560.11</ele>
        <time>2013-12-07T13:26:24Z</time>
      </trkpt>
      <trkpt lat="43.00868" lon="-0.10485">
        <ele>562.51</ele>
        <time>2013-12-07T13:26:39Z</time>
      </trkpt>
      <trkpt lat="43.00877" lon="-0.10517">
        <ele>565.39</ele>
        <time>2013-12-07T13:26:52Z</time>
      </trkpt>
      <trkpt lat="43.00888" lon="-0.10555">
        <ele>568.76</ele>
        <time>2013-12-07T13:27:07Z</time>
      </trkpt>
      <trkpt lat="43.00888" lon="-0.10599">
        <ele>569.72</ele>
        <time>2013-12-07T13:27:22Z</time>
      </trkpt>
      <trkpt lat="43.00878" lon="-0.10662">
        <ele>571.16</ele>
        <time>2013-12-07T13:27:40Z</time>
      </trkpt>
      <trkpt lat="43.00888" lon="-0.10712">
        <ele>573.56</ele>
        <time>2013-12-07T13:27:55Z</time>
      </trkpt>
      <trkpt lat="43.00892" lon="-0.10736">
        <ele>575.01</ele>
        <time>2013-12-07T13:28:03Z</time>
      </trkpt>
      <trkpt lat="43.00868" lon="-0.10744">
        <ele>576.93</ele>
        <time>2013-12-07T13:28:15Z</time>
      </trkpt>
      <trkpt lat="43.00854" lon="-0.10741">
        <ele>579.81</ele>
        <time>2013-12-07T13:28:24Z</time>
      </trkpt>
      <trkpt lat="43.00845" lon="-0.10737">
        <ele>580.77</ele>
        <time>2013-12-07T13:28:29Z</time>
      </trkpt>
      <trkpt lat="43.00843" lon="-0.10741">
        <ele>582.22</ele>
        <time>2013-12-07T13:28:33Z</time>
      </trkpt>
      <trkpt lat="43.00854" lon="-0.1075">
        <ele>584.14</ele>
        <time>2013-12-07T13:28:44Z</time>
      </trkpt>
      <trkpt lat="43.00865" lon="-0.1076">
        <ele>586.06</ele>
        <time>2013-12-07T13:28:53Z</time>
      </trkpt>
      <trkpt lat="43.00879" lon="-0.10777">
        <ele>587.98</ele>
        <time>2013-12-07T13:29:05Z</time>
      </trkpt>
      <trkpt lat="43.00882" lon="-0.1078">
        <ele>588.46</ele>
        <time>2013-12-07T13:29:07Z</time>
      </trkpt>
      <trkpt lat="43.00887" lon="-0.10787">
        <ele>588.95</ele>
        <time>2013-12-07T13:29:11Z</time>
      </trkpt>
      <trkpt lat="43.00891" lon="-0.10793">
        <ele>590.39</ele>
        <time>2013-12-07T13:29:15Z</time>
      </trkpt>
      <trkpt lat="43.00899" lon="-0.10798">
        <ele>591.35</ele>
        <time>2013-12-07T13:29:20Z</time>
      </trkpt>
      <trkpt lat="43.00913" lon="-0.10813">
        <ele>593.27</ele>
        <time>2013-12-07T13:29:32Z</time>
      </trkpt>
      <trkpt lat="43.00929" lon="-0.10831">
        <ele>595.19</ele>
        <time>2013-12-07T13:29:44Z</time>
      </trkpt>
      <trkpt lat="43.00932" lon="-0.10836">
        <ele>596.15</ele>
        <time>2013-12-07T13:29:47Z</time>
      </trkpt>
      <trkpt lat="43.00935" lon="-0.10843">
        <ele>597.6</ele>
        <time>2013-12-07T13:29:51Z</time>
      </trkpt>
      <trkpt lat="43.00941" lon="-0.10848">
        <ele>599.04</ele>
        <time>2013-12-07T13:29:56Z</time>
      </trkpt>
      <trkpt lat="43.00953" lon="-0.10855">
        <ele>600.96</ele>
        <time>2013-12-07T13:30:05Z</time>
      </trkpt>
      <trkpt lat="43.00963" lon="-0.10857">
        <ele>601.92</ele>
        <time>2013-12-07T13:30:12Z</time>
      </trkpt>
      <trkpt lat="43.00978" lon="-0.10865">
        <ele>604.33</ele>
        <time>2013-12-07T13:30:23Z</time>
      </trkpt>
      <trkpt lat="43.00985" lon="-0.10871">
        <ele>606.25</ele>
        <time>2013-12-07T13:30:28Z</time>
      </trkpt>
      <trkpt lat="43.01004" lon="-0.10879">
        <ele>606.73</ele>
        <time>2013-12-07T13:30:42Z</time>
      </trkpt>
      <trkpt lat="43.01018" lon="-0.10894">
        <ele>607.21</ele>
        <time>2013-12-07T13:30:53Z</time>
      </trkpt>
      <trkpt lat="43.01034" lon="-0.10907">
        <ele>608.17</ele>
        <time>2013-12-07T13:31:04Z</time>
      </trkpt>
      <trkpt lat="43.01044" lon="-0.1092">
        <ele>609.61</ele>
        <time>2013-12-07T13:31:12Z</time>
      </trkpt>
      <trkpt lat="43.01061" lon="-0.10943">
        <ele>611.06</ele>
        <time>2013-12-07T13:31:25Z</time>
      </trkpt>
      <trkpt lat="43.01087" lon="-0.10967">
        <ele>613.46</ele>
        <time>2013-12-07T13:31:41Z</time>
      </trkpt>
      <trkpt lat="43.01104" lon="-0.10995">
        <ele>613.94</ele>
        <time>2013-12-07T13:31:54Z</time>
      </trkpt>
      <trkpt lat="43.01114" lon="-0.11032">
        <ele>615.86</ele>
        <time>2013-12-07T13:32:07Z</time>
      </trkpt>
      <trkpt lat="43.01131" lon="-0.11074">
        <ele>617.78</ele>
        <time>2013-12-07T13:32:23Z</time>
      </trkpt>
      <trkpt lat="43.01143" lon="-0.11112">
        <ele>620.67</ele>
        <time>2013-12-07T13:32:36Z</time>
      </trkpt>
      <trkpt lat="43.01166" lon="-0.11149">
        <ele>621.63</ele>
        <time>2013-12-07T13:32:49Z</time>
      </trkpt>
      <trkpt lat="43.01208" lon="-0.11171">
        <ele>624.03</ele>
        <time>2013-12-07T13:33:02Z</time>
      </trkpt>
      <trkpt lat="43.0124" lon="-0.11176">
        <ele>623.07</ele>
        <time>2013-12-07T13:33:11Z</time>
      </trkpt>
      <trkpt lat="43.01286" lon="-0.11208">
        <ele>620.19</ele>
        <time>2013-12-07T13:33:21Z</time>
      </trkpt>
      <trkpt lat="43.01305" lon="-0.11233">
        <ele>620.67</ele>
        <time>2013-12-07T13:33:26Z</time>
      </trkpt>
      <trkpt lat="43.01318" lon="-0.11287">
        <ele>620.67</ele>
        <time>2013-12-07T13:33:38Z</time>
      </trkpt>
      <trkpt lat="43.01335" lon="-0.1132">
        <ele>620.67</ele>
        <time>2013-12-07T13:33:48Z</time>
      </trkpt>
      <trkpt lat="43.01363" lon="-0.11358">
        <ele>620.19</ele>
        <time>2013-12-07T13:34:00Z</time>
      </trkpt>
      <trkpt lat="43.01374" lon="-0.11372">
        <ele>617.78</ele>
        <time>2013-12-07T13:34:05Z</time>
      </trkpt>
      <trkpt lat="43.01384" lon="-0.11385">
        <ele>614.9</ele>
        <time>2013-12-07T13:34:09Z</time>
      </trkpt>
      <trkpt lat="43.01391" lon="-0.11392">
        <ele>613.94</ele>
        <time>2013-12-07T13:34:11Z</time>
      </trkpt>
      <trkpt lat="43.014" lon="-0.114">
        <ele>612.5</ele>
        <time>2013-12-07T13:34:13Z</time>
      </trkpt>
      <trkpt lat="43.01413" lon="-0.11413">
        <ele>611.06</ele>
        <time>2013-12-07T13:34:16Z</time>
      </trkpt>
      <trkpt lat="43.01421" lon="-0.11419">
        <ele>610.57</ele>
        <time>2013-12-07T13:34:18Z</time>
      </trkpt>
      <trkpt lat="43.01436" lon="-0.11428">
        <ele>610.09</ele>
        <time>2013-12-07T13:34:22Z</time>
      </trkpt>
      <trkpt lat="43.01456" lon="-0.11441">
        <ele>609.61</ele>
        <time>2013-12-07T13:34:27Z</time>
      </trkpt>
      <trkpt lat="43.01487" lon="-0.11457">
        <ele>608.65</ele>
        <time>2013-12-07T13:34:37Z</time>
      </trkpt>
      <trkpt lat="43.01508" lon="-0.11487">
        <ele>606.73</ele>
        <time>2013-12-07T13:34:46Z</time>
      </trkpt>
      <trkpt lat="43.01534" lon="-0.11505">
        <ele>604.81</ele>
        <time>2013-12-07T13:34:55Z</time>
      </trkpt>
      <trkpt lat="43.01548" lon="-0.11513">
        <ele>603.85</ele>
        <time>2013-12-07T13:34:59Z</time>
      </trkpt>
      <trkpt lat="43.0156" lon="-0.11516">
        <ele>603.85</ele>
        <time>2013-12-07T13:35:09Z</time>
      </trkpt>
      <trkpt lat="43.01563" lon="-0.11516">
        <ele>603.85</ele>
        <time>2013-12-07T13:35:11Z</time>
      </trkpt>
      <trkpt lat="43.01575" lon="-0.11519">
        <ele>603.85</ele>
        <time>2013-12-07T13:35:22Z</time>
      </trkpt>
      <trkpt lat="43.01597" lon="-0.11517">
        <ele>602.4</ele>
        <time>2013-12-07T13:35:33Z</time>
      </trkpt>
      <trkpt lat="43.01626" lon="-0.11518">
        <ele>602.88</ele>
        <time>2013-12-07T13:35:43Z</time>
      </trkpt>
      <trkpt lat="43.01652" lon="-0.11523">
        <ele>601.92</ele>
        <time>2013-12-07T13:35:51Z</time>
      </trkpt>
      <trkpt lat="43.01666" lon="-0.11525">
        <ele>599.52</ele>
        <time>2013-12-07T13:35:54Z</time>
      </trkpt>
      <trkpt lat="43.01675" lon="-0.11528">
        <ele>598.56</ele>
        <time>2013-12-07T13:35:56Z</time>
      </trkpt>
      <trkpt lat="43.01688" lon="-0.11537">
        <ele>595.67</ele>
        <time>2013-12-07T13:35:59Z</time>
      </trkpt>
      <trkpt lat="43.01707" lon="-0.11548">
        <ele>590.87</ele>
        <time>2013-12-07T13:36:03Z</time>
      </trkpt>
      <trkpt lat="43.01712" lon="-0.11551">
        <ele>589.91</ele>
        <time>2013-12-07T13:36:04Z</time>
      </trkpt>
      <trkpt lat="43.01723" lon="-0.11556">
        <ele>587.5</ele>
        <time>2013-12-07T13:36:06Z</time>
      </trkpt>
      <trkpt lat="43.01745" lon="-0.11571">
        <ele>582.7</ele>
        <time>2013-12-07T13:36:10Z</time>
      </trkpt>
      <trkpt lat="43.01755" lon="-0.11581">
        <ele>580.77</ele>
        <time>2013-12-07T13:36:12Z</time>
      </trkpt>
      <trkpt lat="43.01767" lon="-0.11588">
        <ele>579.33</ele>
        <time>2013-12-07T13:36:14Z</time>
      </trkpt>
      <trkpt lat="43.01793" lon="-0.11601">
        <ele>574.04</ele>
        <time>2013-12-07T13:36:18Z</time>
      </trkpt>
      <trkpt lat="43.018" lon="-0.11614">
        <ele>573.56</ele>
        <time>2013-12-07T13:36:20Z</time>
      </trkpt>
      <trkpt lat="43.01807" lon="-0.11627">
        <ele>573.08</ele>
        <time>2013-12-07T13:36:22Z</time>
      </trkpt>
      <trkpt lat="43.0184" lon="-0.11664">
        <ele>574.53</ele>
        <time>2013-12-07T13:36:35Z</time>
      </trkpt>
      <trkpt lat="43.01862" lon="-0.11673">
        <ele>575.01</ele>
        <time>2013-12-07T13:36:46Z</time>
      </trkpt>
      <trkpt lat="43.01883" lon="-0.11701">
        <ele>575.97</ele>
        <time>2013-12-07T13:37:00Z</time>
      </trkpt>
      <trkpt lat="43.01905" lon="-0.11738">
        <ele>575.49</ele>
        <time>2013-12-07T13:37:13Z</time>
      </trkpt>
      <trkpt lat="43.01935" lon="-0.11807">
        <ele>574.04</ele>
        <time>2013-12-07T13:37:25Z</time>
      </trkpt>
      <trkpt lat="43.01945" lon="-0.11831">
        <ele>573.56</ele>
        <time>2013-12-07T13:37:29Z</time>
      </trkpt>
      <trkpt lat="43.01973" lon="-0.11878">
        <ele>573.56</ele>
        <time>2013-12-07T13:37:38Z</time>
      </trkpt>
      <trkpt lat="43.02015" lon="-0.11947">
        <ele>575.01</ele>
        <time>2013-12-07T13:37:55Z</time>
      </trkpt>
      <trkpt lat="43.02033" lon="-0.11989">
        <ele>577.89</ele>
        <time>2013-12-07T13:38:06Z</time>
      </trkpt>
      <trkpt lat="43.02057" lon="-0.12014">
        <ele>581.73</ele>
        <time>2013-12-07T13:38:17Z</time>
      </trkpt>
      <trkpt lat="43.02067" lon="-0.12021">
        <ele>582.7</ele>
        <time>2013-12-07T13:38:22Z</time>
      </trkpt>
      <trkpt lat="43.02079" lon="-0.12032">
        <ele>583.66</ele>
        <time>2013-12-07T13:38:28Z</time>
      </trkpt>
      <trkpt lat="43.02098" lon="-0.1205">
        <ele>586.54</ele>
        <time>2013-12-07T13:38:38Z</time>
      </trkpt>
      <trkpt lat="43.02124" lon="-0.12073">
        <ele>588.95</ele>
        <time>2013-12-07T13:38:52Z</time>
      </trkpt>
      <trkpt lat="43.02145" lon="-0.12093">
        <ele>591.35</ele>
        <time>2013-12-07T13:39:04Z</time>
      </trkpt>
      <trkpt lat="43.02179" lon="-0.1211">
        <ele>593.75</ele>
        <time>2013-12-07T13:39:19Z</time>
      </trkpt>
      <trkpt lat="43.02187" lon="-0.12153">
        <ele>594.71</ele>
        <time>2013-12-07T13:39:32Z</time>
      </trkpt>
      <trkpt lat="43.02173" lon="-0.12194">
        <ele>596.15</ele>
        <time>2013-12-07T13:39:45Z</time>
      </trkpt>
      <trkpt lat="43.02181" lon="-0.12241">
        <ele>597.6</ele>
        <time>2013-12-07T13:39:57Z</time>
      </trkpt>
      <trkpt lat="43.02186" lon="-0.12288">
        <ele>598.56</ele>
        <time>2013-12-07T13:40:08Z</time>
      </trkpt>
      <trkpt lat="43.02197" lon="-0.12348">
        <ele>600.96</ele>
        <time>2013-12-07T13:40:23Z</time>
      </trkpt>
      <trkpt lat="43.02202" lon="-0.12409">
        <ele>602.4</ele>
        <time>2013-12-07T13:40:38Z</time>
      </trkpt>
      <trkpt lat="43.02192" lon="-0.12467">
        <ele>604.81</ele>
        <time>2013-12-07T13:40:53Z</time>
      </trkpt>
      <trkpt lat="43.02181" lon="-0.12522">
        <ele>606.25</ele>
        <time>2013-12-07T13:41:08Z</time>
      </trkpt>
      <trkpt lat="43.02177" lon="-0.12581">
        <ele>608.65</ele>
        <time>2013-12-07T13:41:23Z</time>
      </trkpt>
      <trkpt lat="43.02174" lon="-0.12626">
        <ele>611.06</ele>
        <time>2013-12-07T13:41:35Z</time>
      </trkpt>
      <trkpt lat="43.02186" lon="-0.12662">
        <ele>612.98</ele>
        <time>2013-12-07T13:41:48Z</time>
      </trkpt>
      <trkpt lat="43.02192" lon="-0.12693">
        <ele>615.86</ele>
        <time>2013-12-07T13:42:00Z</time>
      </trkpt>
      <trkpt lat="43.02188" lon="-0.12728">
        <ele>617.78</ele>
        <time>2013-12-07T13:42:13Z</time>
      </trkpt>
      <trkpt lat="43.0219" lon="-0.12756">
        <ele>620.67</ele>
        <time>2013-12-07T13:42:24Z</time>
      </trkpt>
      <trkpt lat="43.02194" lon="-0.12766">
        <ele>621.63</ele>
        <time>2013-12-07T13:42:28Z</time>
      </trkpt>
      <trkpt lat="43.02205" lon="-0.12774">
        <ele>623.07</ele>
        <time>2013-12-07T13:42:34Z</time>
      </trkpt>
      <trkpt lat="43.02237" lon="-0.12781">
        <ele>626.44</ele>
        <time>2013-12-07T13:42:50Z</time>
      </trkpt>
      <trkpt lat="43.02244" lon="-0.12794">
        <ele>627.4</ele>
        <time>2013-12-07T13:42:56Z</time>
      </trkpt>
      <trkpt lat="43.0224" lon="-0.12809">
        <ele>628.84</ele>
        <time>2013-12-07T13:43:03Z</time>
      </trkpt>
      <trkpt lat="43.02238" lon="-0.12815">
        <ele>630.28</ele>
        <time>2013-12-07T13:43:06Z</time>
      </trkpt>
      <trkpt lat="43.02232" lon="-0.12822">
        <ele>631.24</ele>
        <time>2013-12-07T13:43:11Z</time>
      </trkpt>
      <trkpt lat="43.0221" lon="-0.12832">
        <ele>634.61</ele>
        <time>2013-12-07T13:43:26Z</time>
      </trkpt>
      <trkpt lat="43.02194" lon="-0.12838">
        <ele>637.97</ele>
        <time>2013-12-07T13:43:37Z</time>
      </trkpt>
      <trkpt lat="43.02171" lon="-0.12844">
        <ele>640.38</ele>
        <time>2013-12-07T13:43:51Z</time>
      </trkpt>
      <trkpt lat="43.02165" lon="-0.12847">
        <ele>641.34</ele>
        <time>2013-12-07T13:43:55Z</time>
      </trkpt>
      <trkpt lat="43.02159" lon="-0.12851">
        <ele>642.3</ele>
        <time>2013-12-07T13:43:59Z</time>
      </trkpt>
      <trkpt lat="43.02153" lon="-0.12855">
        <ele>642.78</ele>
        <time>2013-12-07T13:44:03Z</time>
      </trkpt>
      <trkpt lat="43.02149" lon="-0.12863">
        <ele>644.22</ele>
        <time>2013-12-07T13:44:08Z</time>
      </trkpt>
      <trkpt lat="43.02149" lon="-0.12886">
        <ele>647.1</ele>
        <time>2013-12-07T13:44:19Z</time>
      </trkpt>
      <trkpt lat="43.0215" lon="-0.12893">
        <ele>648.07</ele>
        <time>2013-12-07T13:44:23Z</time>
      </trkpt>
      <trkpt lat="43.0216" lon="-0.12918">
        <ele>651.43</ele>
        <time>2013-12-07T13:44:38Z</time>
      </trkpt>
      <trkpt lat="43.02165" lon="-0.1293">
        <ele>652.87</ele>
        <time>2013-12-07T13:44:44Z</time>
      </trkpt>
      <trkpt lat="43.02169" lon="-0.12946">
        <ele>654.31</ele>
        <time>2013-12-07T13:44:51Z</time>
      </trkpt>
      <trkpt lat="43.02173" lon="-0.12986">
        <ele>656.24</ele>
        <time>2013-12-07T13:45:09Z</time>
      </trkpt>
      <trkpt lat="43.02181" lon="-0.13018">
        <ele>659.6</ele>
        <time>2013-12-07T13:45:25Z</time>
      </trkpt>
      <trkpt lat="43.02172" lon="-0.13036">
        <ele>662.97</ele>
        <time>2013-12-07T13:45:37Z</time>
      </trkpt>
      <trkpt lat="43.02157" lon="-0.13041">
        <ele>665.37</ele>
        <time>2013-12-07T13:45:48Z</time>
      </trkpt>
      <trkpt lat="43.0215" lon="-0.13042">
        <ele>665.85</ele>
        <time>2013-12-07T13:45:52Z</time>
      </trkpt>
      <trkpt lat="43.02128" lon="-0.13046">
        <ele>668.73</ele>
        <time>2013-12-07T13:46:09Z</time>
      </trkpt>
      <trkpt lat="43.02107" lon="-0.13043">
        <ele>670.66</ele>
        <time>2013-12-07T13:46:22Z</time>
      </trkpt>
      <trkpt lat="43.02083" lon="-0.13028">
        <ele>673.06</ele>
        <time>2013-12-07T13:46:37Z</time>
      </trkpt>
      <trkpt lat="43.02062" lon="-0.13024">
        <ele>674.98</ele>
        <time>2013-12-07T13:46:51Z</time>
      </trkpt>
      <trkpt lat="43.02046" lon="-0.13027">
        <ele>678.35</ele>
        <time>2013-12-07T13:47:02Z</time>
      </trkpt>
      <trkpt lat="43.02045" lon="-0.13027">
        <ele>678.35</ele>
        <time>2013-12-07T13:47:03Z</time>
      </trkpt>
      <trkpt lat="43.02035" lon="-0.1303">
        <ele>679.79</ele>
        <time>2013-12-07T13:47:09Z</time>
      </trkpt>
      <trkpt lat="43.02042" lon="-0.13056">
        <ele>682.19</ele>
        <time>2013-12-07T13:47:22Z</time>
      </trkpt>
      <trkpt lat="43.02052" lon="-0.1309">
        <ele>685.08</ele>
        <time>2013-12-07T13:47:39Z</time>
      </trkpt>
      <trkpt lat="43.02055" lon="-0.13103">
        <ele>685.56</ele>
        <time>2013-12-07T13:47:45Z</time>
      </trkpt>
      <trkpt lat="43.02073" lon="-0.13133">
        <ele>688.44</ele>
        <time>2013-12-07T13:48:03Z</time>
      </trkpt>
      <trkpt lat="43.02086" lon="-0.13154">
        <ele>691.33</ele>
        <time>2013-12-07T13:48:15Z</time>
      </trkpt>
      <trkpt lat="43.02105" lon="-0.13184">
        <ele>693.25</ele>
        <time>2013-12-07T13:48:32Z</time>
      </trkpt>
      <trkpt lat="43.02119" lon="-0.13207">
        <ele>694.69</ele>
        <time>2013-12-07T13:48:46Z</time>
      </trkpt>
      <trkpt lat="43.02123" lon="-0.13214">
        <ele>694.21</ele>
        <time>2013-12-07T13:48:58Z</time>
      </trkpt>
      <trkpt lat="43.02122" lon="-0.13214">
        <ele>694.21</ele>
        <time>2013-12-07T13:49:33Z</time>
      </trkpt>
      <trkpt lat="43.02122" lon="-0.13216">
        <ele>695.17</ele>
        <time>2013-12-07T13:50:08Z</time>
      </trkpt>
      <trkpt lat="43.02121" lon="-0.13217">
        <ele>694.69</ele>
        <time>2013-12-07T13:50:40Z</time>
      </trkpt>
      <trkpt lat="43.02121" lon="-0.13217">
        <ele>695.65</ele>
        <time>2013-12-07T13:51:13Z</time>
      </trkpt>
      <trkpt lat="43.02121" lon="-0.13216">
        <ele>695.65</ele>
        <time>2013-12-07T13:51:43Z</time>
      </trkpt>
      <trkpt lat="43.02123" lon="-0.13216">
        <ele>696.13</ele>
        <time>2013-12-07T13:52:04Z</time>
      </trkpt>
      <trkpt lat="43.02133" lon="-0.1324">
        <ele>697.09</ele>
        <time>2013-12-07T13:52:18Z</time>
      </trkpt>
      <trkpt lat="43.02135" lon="-0.13274">
        <ele>699.5</ele>
        <time>2013-12-07T13:52:33Z</time>
      </trkpt>
      <trkpt lat="43.02123" lon="-0.13288">
        <ele>702.38</ele>
        <time>2013-12-07T13:52:45Z</time>
      </trkpt>
      <trkpt lat="43.02107" lon="-0.13279">
        <ele>705.75</ele>
        <time>2013-12-07T13:52:57Z</time>
      </trkpt>
      <trkpt lat="43.02089" lon="-0.13272">
        <ele>708.15</ele>
        <time>2013-12-07T13:53:11Z</time>
      </trkpt>
      <trkpt lat="43.02066" lon="-0.13263">
        <ele>710.55</ele>
        <time>2013-12-07T13:53:27Z</time>
      </trkpt>
      <trkpt lat="43.02039" lon="-0.13256">
        <ele>711.99</ele>
        <time>2013-12-07T13:53:43Z</time>
      </trkpt>
      <trkpt lat="43.02017" lon="-0.13252">
        <ele>714.88</ele>
        <time>2013-12-07T13:53:56Z</time>
      </trkpt>
      <trkpt lat="43.01999" lon="-0.13249">
        <ele>717.76</ele>
        <time>2013-12-07T13:54:08Z</time>
      </trkpt>
      <trkpt lat="43.01978" lon="-0.13247">
        <ele>720.65</ele>
        <time>2013-12-07T13:54:23Z</time>
      </trkpt>
      <trkpt lat="43.01975" lon="-0.13248">
        <ele>721.13</ele>
        <time>2013-12-07T13:54:25Z</time>
      </trkpt>
      <trkpt lat="43.01967" lon="-0.13244">
        <ele>721.61</ele>
        <time>2013-12-07T13:54:30Z</time>
      </trkpt>
      <trkpt lat="43.01956" lon="-0.13216">
        <ele>723.05</ele>
        <time>2013-12-07T13:54:44Z</time>
      </trkpt>
      <trkpt lat="43.01943" lon="-0.13187">
        <ele>725.93</ele>
        <time>2013-12-07T13:54:59Z</time>
      </trkpt>
      <trkpt lat="43.01938" lon="-0.13182">
        <ele>726.41</ele>
        <time>2013-12-07T13:55:03Z</time>
      </trkpt>
      <trkpt lat="43.01933" lon="-0.13179">
        <ele>727.37</ele>
        <time>2013-12-07T13:55:06Z</time>
      </trkpt>
      <trkpt lat="43.01928" lon="-0.13179">
        <ele>728.34</ele>
        <time>2013-12-07T13:55:09Z</time>
      </trkpt>
      <trkpt lat="43.01921" lon="-0.13185">
        <ele>730.26</ele>
        <time>2013-12-07T13:55:15Z</time>
      </trkpt>
      <trkpt lat="43.0191" lon="-0.13209">
        <ele>732.18</ele>
        <time>2013-12-07T13:55:28Z</time>
      </trkpt>
      <trkpt lat="43.01904" lon="-0.13216">
        <ele>733.14</ele>
        <time>2013-12-07T13:55:34Z</time>
      </trkpt>
      <trkpt lat="43.01889" lon="-0.1321">
        <ele>735.07</ele>
        <time>2013-12-07T13:55:45Z</time>
      </trkpt>
      <trkpt lat="43.01864" lon="-0.13183">
        <ele>735.55</ele>
        <time>2013-12-07T13:56:01Z</time>
      </trkpt>
      <trkpt lat="43.01858" lon="-0.13169">
        <ele>735.07</ele>
        <time>2013-12-07T13:56:05Z</time>
      </trkpt>
      <trkpt lat="43.01855" lon="-0.13157">
        <ele>733.62</ele>
        <time>2013-12-07T13:56:07Z</time>
      </trkpt>
      <trkpt lat="43.01849" lon="-0.13116">
        <ele>729.78</ele>
        <time>2013-12-07T13:56:12Z</time>
      </trkpt>
      <trkpt lat="43.01843" lon="-0.131">
        <ele>728.34</ele>
        <time>2013-12-07T13:56:14Z</time>
      </trkpt>
      <trkpt lat="43.01824" lon="-0.13076">
        <ele>726.41</ele>
        <time>2013-12-07T13:56:19Z</time>
      </trkpt>
      <trkpt lat="43.01798" lon="-0.13053">
        <ele>722.09</ele>
        <time>2013-12-07T13:56:26Z</time>
      </trkpt>
      <trkpt lat="43.01783" lon="-0.13026">
        <ele>724.01</ele>
        <time>2013-12-07T13:56:32Z</time>
      </trkpt>
      <trkpt lat="43.01773" lon="-0.12994">
        <ele>726.41</ele>
        <time>2013-12-07T13:56:43Z</time>
      </trkpt>
      <trkpt lat="43.0176" lon="-0.12962">
        <ele>727.86</ele>
        <time>2013-12-07T13:56:56Z</time>
      </trkpt>
      <trkpt lat="43.01752" lon="-0.1294">
        <ele>731.7</ele>
        <time>2013-12-07T13:57:07Z</time>
      </trkpt>
      <trkpt lat="43.01738" lon="-0.12915">
        <ele>733.62</ele>
        <time>2013-12-07T13:57:19Z</time>
      </trkpt>
      <trkpt lat="43.01723" lon="-0.12884">
        <ele>734.58</ele>
        <time>2013-12-07T13:57:31Z</time>
      </trkpt>
      <trkpt lat="43.01711" lon="-0.12856">
        <ele>735.55</ele>
        <time>2013-12-07T13:57:40Z</time>
      </trkpt>
      <trkpt lat="43.01692" lon="-0.1283">
        <ele>737.47</ele>
        <time>2013-12-07T13:57:51Z</time>
      </trkpt>
      <trkpt lat="43.01677" lon="-0.12802">
        <ele>739.39</ele>
        <time>2013-12-07T13:58:03Z</time>
      </trkpt>
      <trkpt lat="43.01676" lon="-0.12806">
        <ele>739.87</ele>
        <time>2013-12-07T13:58:11Z</time>
      </trkpt>
      <trkpt lat="43.01679" lon="-0.1281">
        <ele>739.87</ele>
        <time>2013-12-07T13:58:18Z</time>
      </trkpt>
      <trkpt lat="43.01681" lon="-0.12822">
        <ele>740.83</ele>
        <time>2013-12-07T13:58:25Z</time>
      </trkpt>
      <trkpt lat="43.01683" lon="-0.12855">
        <ele>744.2</ele>
        <time>2013-12-07T13:58:40Z</time>
      </trkpt>
      <trkpt lat="43.01686" lon="-0.12884">
        <ele>746.12</ele>
        <time>2013-12-07T13:58:53Z</time>
      </trkpt>
      <trkpt lat="43.01689" lon="-0.12901">
        <ele>748.52</ele>
        <time>2013-12-07T13:59:02Z</time>
      </trkpt>
      <trkpt lat="43.01693" lon="-0.12919">
        <ele>750.45</ele>
        <time>2013-12-07T13:59:11Z</time>
      </trkpt>
      <trkpt lat="43.01695" lon="-0.12927">
        <ele>751.41</ele>
        <time>2013-12-07T13:59:15Z</time>
      </trkpt>
      <trkpt lat="43.01701" lon="-0.1295">
        <ele>754.29</ele>
        <time>2013-12-07T13:59:28Z</time>
      </trkpt>
      <trkpt lat="43.01703" lon="-0.12958">
        <ele>756.21</ele>
        <time>2013-12-07T13:59:33Z</time>
      </trkpt>
      <trkpt lat="43.01708" lon="-0.12985">
        <ele>758.14</ele>
        <time>2013-12-07T13:59:45Z</time>
      </trkpt>
      <trkpt lat="43.01713" lon="-0.13019">
        <ele>761.98</ele>
        <time>2013-12-07T14:00:00Z</time>
      </trkpt>
      <trkpt lat="43.01714" lon="-0.13021">
        <ele>761.5</ele>
        <time>2013-12-07T14:00:01Z</time>
      </trkpt>
      <trkpt lat="43.01714" lon="-0.13038">
        <ele>762.46</ele>
        <time>2013-12-07T14:00:09Z</time>
      </trkpt>
      <trkpt lat="43.01714" lon="-0.13048">
        <ele>763.9</ele>
        <time>2013-12-07T14:00:15Z</time>
      </trkpt>
      <trkpt lat="43.01715" lon="-0.13057">
        <ele>764.39</ele>
        <time>2013-12-07T14:00:20Z</time>
      </trkpt>
      <trkpt lat="43.01716" lon="-0.13083">
        <ele>765.83</ele>
        <time>2013-12-07T14:00:33Z</time>
      </trkpt>
      <trkpt lat="43.01716" lon="-0.13087">
        <ele>766.31</ele>
        <time>2013-12-07T14:00:35Z</time>
      </trkpt>
      <trkpt lat="43.01717" lon="-0.13096">
        <ele>766.79</ele>
        <time>2013-12-07T14:00:39Z</time>
      </trkpt>
      <trkpt lat="43.01715" lon="-0.1311">
        <ele>767.75</ele>
        <time>2013-12-07T14:00:45Z</time>
      </trkpt>
      <trkpt lat="43.01714" lon="-0.13124">
        <ele>769.19</ele>
        <time>2013-12-07T14:00:52Z</time>
      </trkpt>
      <trkpt lat="43.01717" lon="-0.13136">
        <ele>769.67</ele>
        <time>2013-12-07T14:00:57Z</time>
      </trkpt>
      <trkpt lat="43.01719" lon="-0.13149">
        <ele>770.63</ele>
        <time>2013-12-07T14:01:03Z</time>
      </trkpt>
      <trkpt lat="43.01718" lon="-0.13161">
        <ele>770.63</ele>
        <time>2013-12-07T14:01:08Z</time>
      </trkpt>
      <trkpt lat="43.01725" lon="-0.13177">
        <ele>771.6</ele>
        <time>2013-12-07T14:01:12Z</time>
      </trkpt>
      <trkpt lat="43.01743" lon="-0.13219">
        <ele>772.56</ele>
        <time>2013-12-07T14:01:26Z</time>
      </trkpt>
      <trkpt lat="43.01762" lon="-0.13262">
        <ele>773.52</ele>
        <time>2013-12-07T14:01:40Z</time>
      </trkpt>
      <trkpt lat="43.01779" lon="-0.13298">
        <ele>774.96</ele>
        <time>2013-12-07T14:01:52Z</time>
      </trkpt>
      <trkpt lat="43.01798" lon="-0.13347">
        <ele>776.88</ele>
        <time>2013-12-07T14:02:07Z</time>
      </trkpt>
      <trkpt lat="43.01819" lon="-0.13399">
        <ele>778.81</ele>
        <time>2013-12-07T14:02:23Z</time>
      </trkpt>
      <trkpt lat="43.01822" lon="-0.13404">
        <ele>779.29</ele>
        <time>2013-12-07T14:02:26Z</time>
      </trkpt>
      <trkpt lat="43.01843" lon="-0.13446">
        <ele>782.17</ele>
        <time>2013-12-07T14:02:40Z</time>
      </trkpt>
      <trkpt lat="43.01861" lon="-0.13484">
        <ele>785.53</ele>
        <time>2013-12-07T14:02:54Z</time>
      </trkpt>
      <trkpt lat="43.01876" lon="-0.13513">
        <ele>788.42</ele>
        <time>2013-12-07T14:03:08Z</time>
      </trkpt>
      <trkpt lat="43.01886" lon="-0.13528">
        <ele>789.86</ele>
        <time>2013-12-07T14:03:16Z</time>
      </trkpt>
      <trkpt lat="43.01903" lon="-0.13546">
        <ele>792.74</ele>
        <time>2013-12-07T14:03:30Z</time>
      </trkpt>
      <trkpt lat="43.01916" lon="-0.13562">
        <ele>795.15</ele>
        <time>2013-12-07T14:03:40Z</time>
      </trkpt>
      <trkpt lat="43.01917" lon="-0.13563">
        <ele>794.67</ele>
        <time>2013-12-07T14:03:41Z</time>
      </trkpt>
      <trkpt lat="43.01926" lon="-0.13577">
        <ele>796.59</ele>
        <time>2013-12-07T14:03:48Z</time>
      </trkpt>
      <trkpt lat="43.01934" lon="-0.13599">
        <ele>798.99</ele>
        <time>2013-12-07T14:03:58Z</time>
      </trkpt>
      <trkpt lat="43.0194" lon="-0.13621">
        <ele>800.92</ele>
        <time>2013-12-07T14:04:09Z</time>
      </trkpt>
      <trkpt lat="43.01932" lon="-0.13655">
        <ele>803.8</ele>
        <time>2013-12-07T14:04:24Z</time>
      </trkpt>
      <trkpt lat="43.01925" lon="-0.13665">
        <ele>804.28</ele>
        <time>2013-12-07T14:04:29Z</time>
      </trkpt>
      <trkpt lat="43.01916" lon="-0.13679">
        <ele>805.24</ele>
        <time>2013-12-07T14:04:36Z</time>
      </trkpt>
      <trkpt lat="43.01882" lon="-0.13703">
        <ele>805.72</ele>
        <time>2013-12-07T14:04:53Z</time>
      </trkpt>
      <trkpt lat="43.01876" lon="-0.13705">
        <ele>805.72</ele>
        <time>2013-12-07T14:04:56Z</time>
      </trkpt>
      <trkpt lat="43.01862" lon="-0.13709">
        <ele>806.2</ele>
        <time>2013-12-07T14:05:03Z</time>
      </trkpt>
      <trkpt lat="43.01831" lon="-0.13709">
        <ele>808.61</ele>
        <time>2013-12-07T14:05:18Z</time>
      </trkpt>
      <trkpt lat="43.01805" lon="-0.13702">
        <ele>811.49</ele>
        <time>2013-12-07T14:05:30Z</time>
      </trkpt>
      <trkpt lat="43.01799" lon="-0.13699">
        <ele>811.97</ele>
        <time>2013-12-07T14:05:33Z</time>
      </trkpt>
      <trkpt lat="43.01797" lon="-0.13696">
        <ele>812.93</ele>
        <time>2013-12-07T14:05:35Z</time>
      </trkpt>
      <trkpt lat="43.01784" lon="-0.13682">
        <ele>814.85</ele>
        <time>2013-12-07T14:05:48Z</time>
      </trkpt>
      <trkpt lat="43.01785" lon="-0.13682">
        <ele>814.85</ele>
        <time>2013-12-07T14:06:03Z</time>
      </trkpt>
      <trkpt lat="43.01785" lon="-0.13679">
        <ele>814.85</ele>
        <time>2013-12-07T14:06:26Z</time>
      </trkpt>
      <trkpt lat="43.01783" lon="-0.13678">
        <ele>814.85</ele>
        <time>2013-12-07T14:06:28Z</time>
      </trkpt>
      <trkpt lat="43.01773" lon="-0.13669">
        <ele>816.78</ele>
        <time>2013-12-07T14:06:42Z</time>
      </trkpt>
      <trkpt lat="43.01762" lon="-0.13659">
        <ele>818.22</ele>
        <time>2013-12-07T14:06:56Z</time>
      </trkpt>
      <trkpt lat="43.01752" lon="-0.13654">
        <ele>819.66</ele>
        <time>2013-12-07T14:07:08Z</time>
      </trkpt>
      <trkpt lat="43.01742" lon="-0.13653">
        <ele>820.14</ele>
        <time>2013-12-07T14:07:19Z</time>
      </trkpt>
      <trkpt lat="43.0174" lon="-0.13652">
        <ele>820.14</ele>
        <time>2013-12-07T14:07:23Z</time>
      </trkpt>
      <trkpt lat="43.01721" lon="-0.13652">
        <ele>823.03</ele>
        <time>2013-12-07T14:07:36Z</time>
      </trkpt>
      <trkpt lat="43.0172" lon="-0.13653">
        <ele>822.55</ele>
        <time>2013-12-07T14:07:37Z</time>
      </trkpt>
      <trkpt lat="43.01705" lon="-0.13671">
        <ele>825.43</ele>
        <time>2013-12-07T14:07:51Z</time>
      </trkpt>
      <trkpt lat="43.01693" lon="-0.13697">
        <ele>827.35</ele>
        <time>2013-12-07T14:08:04Z</time>
      </trkpt>
      <trkpt lat="43.01686" lon="-0.13726">
        <ele>829.27</ele>
        <time>2013-12-07T14:08:17Z</time>
      </trkpt>
      <trkpt lat="43.01681" lon="-0.13755">
        <ele>831.2</ele>
        <time>2013-12-07T14:08:30Z</time>
      </trkpt>
      <trkpt lat="43.01679" lon="-0.13761">
        <ele>831.2</ele>
        <time>2013-12-07T14:08:36Z</time>
      </trkpt>
      <trkpt lat="43.01676" lon="-0.13768">
        <ele>832.16</ele>
        <time>2013-12-07T14:08:43Z</time>
      </trkpt>
      <trkpt lat="43.01674" lon="-0.13778">
        <ele>833.12</ele>
        <time>2013-12-07T14:08:54Z</time>
      </trkpt>
      <trkpt lat="43.01673" lon="-0.13793">
        <ele>834.08</ele>
        <time>2013-12-07T14:09:01Z</time>
      </trkpt>
      <trkpt lat="43.01672" lon="-0.13829">
        <ele>837.45</ele>
        <time>2013-12-07T14:09:16Z</time>
      </trkpt>
      <trkpt lat="43.01672" lon="-0.13852">
        <ele>838.89</ele>
        <time>2013-12-07T14:09:26Z</time>
      </trkpt>
      <trkpt lat="43.0167" lon="-0.1386">
        <ele>840.33</ele>
        <time>2013-12-07T14:09:30Z</time>
      </trkpt>
      <trkpt lat="43.01672" lon="-0.13882">
        <ele>842.25</ele>
        <time>2013-12-07T14:09:40Z</time>
      </trkpt>
      <trkpt lat="43.01674" lon="-0.13913">
        <ele>845.62</ele>
        <time>2013-12-07T14:09:56Z</time>
      </trkpt>
      <trkpt lat="43.01676" lon="-0.1393">
        <ele>846.58</ele>
        <time>2013-12-07T14:10:07Z</time>
      </trkpt>
      <trkpt lat="43.01677" lon="-0.13954">
        <ele>848.98</ele>
        <time>2013-12-07T14:10:18Z</time>
      </trkpt>
      <trkpt lat="43.01677" lon="-0.13958">
        <ele>849.94</ele>
        <time>2013-12-07T14:10:20Z</time>
      </trkpt>
      <trkpt lat="43.01676" lon="-0.13973">
        <ele>851.38</ele>
        <time>2013-12-07T14:10:27Z</time>
      </trkpt>
      <trkpt lat="43.01676" lon="-0.13977">
        <ele>851.38</ele>
        <time>2013-12-07T14:10:29Z</time>
      </trkpt>
      <trkpt lat="43.01674" lon="-0.1404">
        <ele>867.25</ele>
        <time>2013-12-07T14:11:58Z</time>
      </trkpt>
      <trkpt lat="43.0167" lon="-0.14041">
        <ele>867.73</ele>
        <time>2013-12-07T14:12:00Z</time>
      </trkpt>
      <trkpt lat="43.01665" lon="-0.1404">
        <ele>865.8</ele>
        <time>2013-12-07T14:12:10Z</time>
      </trkpt>
      <trkpt lat="43.01664" lon="-0.14041">
        <ele>862.44</ele>
        <time>2013-12-07T14:12:22Z</time>
      </trkpt>
      <trkpt lat="43.01663" lon="-0.14042">
        <ele>859.56</ele>
        <time>2013-12-07T14:12:39Z</time>
      </trkpt>
      <trkpt lat="43.01662" lon="-0.14042">
        <ele>864.36</ele>
        <time>2013-12-07T14:12:45Z</time>
      </trkpt>
      <trkpt lat="43.01662" lon="-0.14041">
        <ele>859.08</ele>
        <time>2013-12-07T14:12:46Z</time>
      </trkpt>
      <trkpt lat="43.01662" lon="-0.14041">
        <ele>864.84</ele>
        <time>2013-12-07T14:12:47Z</time>
      </trkpt>
      <trkpt lat="43.01662" lon="-0.14041">
        <ele>859.56</ele>
        <time>2013-12-07T14:12:48Z</time>
      </trkpt>
      <trkpt lat="43.01664" lon="-0.14041">
        <ele>856.19</ele>
        <time>2013-12-07T14:12:54Z</time>
      </trkpt>
      <trkpt lat="43.01664" lon="-0.14041">
        <ele>859.56</ele>
        <time>2013-12-07T14:12:55Z</time>
      </trkpt>
      <trkpt lat="43.01666" lon="-0.14038">
        <ele>859.56</ele>
        <time>2013-12-07T14:13:17Z</time>
      </trkpt>
      <trkpt lat="43.01665" lon="-0.14038">
        <ele>859.56</ele>
        <time>2013-12-07T14:13:42Z</time>
      </trkpt>
      <trkpt lat="43.01664" lon="-0.14048">
        <ele>860.04</ele>
        <time>2013-12-07T14:13:47Z</time>
      </trkpt>
      <trkpt lat="43.01661" lon="-0.14059">
        <ele>861.48</ele>
        <time>2013-12-07T14:13:52Z</time>
      </trkpt>
      <trkpt lat="43.01657" lon="-0.14082">
        <ele>862.44</ele>
        <time>2013-12-07T14:14:04Z</time>
      </trkpt>
      <trkpt lat="43.01656" lon="-0.14084">
        <ele>862.44</ele>
        <time>2013-12-07T14:14:06Z</time>
      </trkpt>
      <trkpt lat="43.01652" lon="-0.14114">
        <ele>864.36</ele>
        <time>2013-12-07T14:14:21Z</time>
      </trkpt>
      <trkpt lat="43.0165" lon="-0.14123">
        <ele>865.32</ele>
        <time>2013-12-07T14:14:26Z</time>
      </trkpt>
      <trkpt lat="43.01643" lon="-0.1415">
        <ele>866.29</ele>
        <time>2013-12-07T14:14:41Z</time>
      </trkpt>
      <trkpt lat="43.01641" lon="-0.14165">
        <ele>866.29</ele>
        <time>2013-12-07T14:14:49Z</time>
      </trkpt>
      <trkpt lat="43.01641" lon="-0.14178">
        <ele>867.25</ele>
        <time>2013-12-07T14:14:56Z</time>
      </trkpt>
      <trkpt lat="43.01642" lon="-0.14188">
        <ele>867.73</ele>
        <time>2013-12-07T14:15:01Z</time>
      </trkpt>
      <trkpt lat="43.01641" lon="-0.14206">
        <ele>868.21</ele>
        <time>2013-12-07T14:15:10Z</time>
      </trkpt>
      <trkpt lat="43.0164" lon="-0.1423">
        <ele>868.69</ele>
        <time>2013-12-07T14:15:21Z</time>
      </trkpt>
      <trkpt lat="43.01633" lon="-0.1426">
        <ele>868.69</ele>
        <time>2013-12-07T14:15:35Z</time>
      </trkpt>
      <trkpt lat="43.01631" lon="-0.14283">
        <ele>869.65</ele>
        <time>2013-12-07T14:15:46Z</time>
      </trkpt>
      <trkpt lat="43.01622" lon="-0.14279">
        <ele>870.61</ele>
        <time>2013-12-07T14:15:55Z</time>
      </trkpt>
      <trkpt lat="43.01621" lon="-0.14276">
        <ele>870.61</ele>
        <time>2013-12-07T14:15:57Z</time>
      </trkpt>
      <trkpt lat="43.0162" lon="-0.14271">
        <ele>870.61</ele>
        <time>2013-12-07T14:16:00Z</time>
      </trkpt>
      <trkpt lat="43.01622" lon="-0.14262">
        <ele>871.09</ele>
        <time>2013-12-07T14:16:04Z</time>
      </trkpt>
      <trkpt lat="43.01624" lon="-0.14253">
        <ele>871.09</ele>
        <time>2013-12-07T14:16:08Z</time>
      </trkpt>
      <trkpt lat="43.01624" lon="-0.14218">
        <ele>872.53</ele>
        <time>2013-12-07T14:16:23Z</time>
      </trkpt>
      <trkpt lat="43.01624" lon="-0.14206">
        <ele>872.53</ele>
        <time>2013-12-07T14:16:28Z</time>
      </trkpt>
      <trkpt lat="43.01619" lon="-0.14194">
        <ele>873.98</ele>
        <time>2013-12-07T14:16:34Z</time>
      </trkpt>
      <trkpt lat="43.01614" lon="-0.14181">
        <ele>874.94</ele>
        <time>2013-12-07T14:16:41Z</time>
      </trkpt>
      <trkpt lat="43.01606" lon="-0.1415">
        <ele>874.46</ele>
        <time>2013-12-07T14:16:55Z</time>
      </trkpt>
      <trkpt lat="43.01602" lon="-0.14129">
        <ele>874.94</ele>
        <time>2013-12-07T14:17:07Z</time>
      </trkpt>
      <trkpt lat="43.01591" lon="-0.14099">
        <ele>873.01</ele>
        <time>2013-12-07T14:17:20Z</time>
      </trkpt>
      <trkpt lat="43.01576" lon="-0.14069">
        <ele>871.57</ele>
        <time>2013-12-07T14:17:30Z</time>
      </trkpt>
      <trkpt lat="43.01563" lon="-0.14041">
        <ele>871.09</ele>
        <time>2013-12-07T14:17:41Z</time>
      </trkpt>
      <trkpt lat="43.01558" lon="-0.14026">
        <ele>871.09</ele>
        <time>2013-12-07T14:17:48Z</time>
      </trkpt>
      <trkpt lat="43.01551" lon="-0.14009">
        <ele>870.61</ele>
        <time>2013-12-07T14:17:55Z</time>
      </trkpt>
      <trkpt lat="43.01549" lon="-0.14002">
        <ele>870.61</ele>
        <time>2013-12-07T14:17:58Z</time>
      </trkpt>
      <trkpt lat="43.01546" lon="-0.13985">
        <ele>870.13</ele>
        <time>2013-12-07T14:18:07Z</time>
      </trkpt>
      <trkpt lat="43.01546" lon="-0.13969">
        <ele>870.13</ele>
        <time>2013-12-07T14:18:13Z</time>
      </trkpt>
      <trkpt lat="43.0154" lon="-0.13929">
        <ele>869.65</ele>
        <time>2013-12-07T14:18:25Z</time>
      </trkpt>
      <trkpt lat="43.01526" lon="-0.13883">
        <ele>867.73</ele>
        <time>2013-12-07T14:18:40Z</time>
      </trkpt>
      <trkpt lat="43.01522" lon="-0.13876">
        <ele>867.73</ele>
        <time>2013-12-07T14:18:43Z</time>
      </trkpt>
      <trkpt lat="43.01505" lon="-0.13879">
        <ele>870.13</ele>
        <time>2013-12-07T14:18:54Z</time>
      </trkpt>
      <trkpt lat="43.01491" lon="-0.1389">
        <ele>873.01</ele>
        <time>2013-12-07T14:19:06Z</time>
      </trkpt>
      <trkpt lat="43.01478" lon="-0.13901">
        <ele>875.9</ele>
        <time>2013-12-07T14:19:18Z</time>
      </trkpt>
      <trkpt lat="43.01476" lon="-0.13902">
        <ele>875.9</ele>
        <time>2013-12-07T14:19:19Z</time>
      </trkpt>
      <trkpt lat="43.01461" lon="-0.13914">
        <ele>878.78</ele>
        <time>2013-12-07T14:19:33Z</time>
      </trkpt>
      <trkpt lat="43.01451" lon="-0.1392">
        <ele>880.22</ele>
        <time>2013-12-07T14:19:41Z</time>
      </trkpt>
      <trkpt lat="43.0144" lon="-0.13931">
        <ele>882.63</ele>
        <time>2013-12-07T14:19:51Z</time>
      </trkpt>
      <trkpt lat="43.01431" lon="-0.13949">
        <ele>885.51</ele>
        <time>2013-12-07T14:20:05Z</time>
      </trkpt>
      <trkpt lat="43.0143" lon="-0.13955">
        <ele>885.99</ele>
        <time>2013-12-07T14:20:09Z</time>
      </trkpt>
      <trkpt lat="43.01429" lon="-0.13963">
        <ele>885.99</ele>
        <time>2013-12-07T14:20:14Z</time>
      </trkpt>
      <trkpt lat="43.01429" lon="-0.13975">
        <ele>886.95</ele>
        <time>2013-12-07T14:20:25Z</time>
      </trkpt>
      <trkpt lat="43.01424" lon="-0.14003">
        <ele>888.4</ele>
        <time>2013-12-07T14:20:38Z</time>
      </trkpt>
      <trkpt lat="43.01424" lon="-0.14006">
        <ele>887.91</ele>
        <time>2013-12-07T14:20:40Z</time>
      </trkpt>
      <trkpt lat="43.01423" lon="-0.14038">
        <ele>889.84</ele>
        <time>2013-12-07T14:20:55Z</time>
      </trkpt>
      <trkpt lat="43.01423" lon="-0.1404">
        <ele>890.8</ele>
        <time>2013-12-07T14:20:56Z</time>
      </trkpt>
      <trkpt lat="43.01423" lon="-0.1405">
        <ele>891.28</ele>
        <time>2013-12-07T14:21:03Z</time>
      </trkpt>
      <trkpt lat="43.01429" lon="-0.14074">
        <ele>892.72</ele>
        <time>2013-12-07T14:21:15Z</time>
      </trkpt>
      <trkpt lat="43.01429" lon="-0.14083">
        <ele>892.72</ele>
        <time>2013-12-07T14:21:20Z</time>
      </trkpt>
      <trkpt lat="43.01429" lon="-0.14087">
        <ele>893.2</ele>
        <time>2013-12-07T14:21:22Z</time>
      </trkpt>
      <trkpt lat="43.01423" lon="-0.14111">
        <ele>894.16</ele>
        <time>2013-12-07T14:21:34Z</time>
      </trkpt>
      <trkpt lat="43.01421" lon="-0.14118">
        <ele>894.64</ele>
        <time>2013-12-07T14:21:38Z</time>
      </trkpt>
      <trkpt lat="43.01418" lon="-0.14129">
        <ele>896.09</ele>
        <time>2013-12-07T14:21:43Z</time>
      </trkpt>
      <trkpt lat="43.01412" lon="-0.14139">
        <ele>898.01</ele>
        <time>2013-12-07T14:21:49Z</time>
      </trkpt>
      <trkpt lat="43.01409" lon="-0.14159">
        <ele>899.45</ele>
        <time>2013-12-07T14:22:00Z</time>
      </trkpt>
      <trkpt lat="43.01409" lon="-0.14186">
        <ele>901.37</ele>
        <time>2013-12-07T14:22:14Z</time>
      </trkpt>
      <trkpt lat="43.01408" lon="-0.142">
        <ele>901.85</ele>
        <time>2013-12-07T14:22:24Z</time>
      </trkpt>
      <trkpt lat="43.01407" lon="-0.14205">
        <ele>901.37</ele>
        <time>2013-12-07T14:22:54Z</time>
      </trkpt>
      <trkpt lat="43.01407" lon="-0.14203">
        <ele>901.85</ele>
        <time>2013-12-07T14:23:14Z</time>
      </trkpt>
      <trkpt lat="43.01406" lon="-0.14206">
        <ele>901.85</ele>
        <time>2013-12-07T14:23:41Z</time>
      </trkpt>
      <trkpt lat="43.01406" lon="-0.14211">
        <ele>901.85</ele>
        <time>2013-12-07T14:23:44Z</time>
      </trkpt>
      <trkpt lat="43.01404" lon="-0.14216">
        <ele>902.33</ele>
        <time>2013-12-07T14:23:47Z</time>
      </trkpt>
      <trkpt lat="43.01402" lon="-0.14248">
        <ele>902.33</ele>
        <time>2013-12-07T14:24:00Z</time>
      </trkpt>
      <trkpt lat="43.01398" lon="-0.14272">
        <ele>902.82</ele>
        <time>2013-12-07T14:24:10Z</time>
      </trkpt>
      <trkpt lat="43.01398" lon="-0.14277">
        <ele>902.82</ele>
        <time>2013-12-07T14:24:12Z</time>
      </trkpt>
      <trkpt lat="43.01395" lon="-0.1429">
        <ele>902.33</ele>
        <time>2013-12-07T14:24:18Z</time>
      </trkpt>
      <trkpt lat="43.01391" lon="-0.14315">
        <ele>903.3</ele>
        <time>2013-12-07T14:24:28Z</time>
      </trkpt>
      <trkpt lat="43.0139" lon="-0.14322">
        <ele>904.26</ele>
        <time>2013-12-07T14:24:32Z</time>
      </trkpt>
      <trkpt lat="43.01384" lon="-0.14334">
        <ele>904.74</ele>
        <time>2013-12-07T14:24:40Z</time>
      </trkpt>
      <trkpt lat="43.01381" lon="-0.14341">
        <ele>905.22</ele>
        <time>2013-12-07T14:24:44Z</time>
      </trkpt>
      <trkpt lat="43.01377" lon="-0.1436">
        <ele>906.18</ele>
        <time>2013-12-07T14:24:52Z</time>
      </trkpt>
      <trkpt lat="43.01371" lon="-0.14373">
        <ele>906.66</ele>
        <time>2013-12-07T14:24:59Z</time>
      </trkpt>
      <trkpt lat="43.01369" lon="-0.14389">
        <ele>908.1</ele>
        <time>2013-12-07T14:25:06Z</time>
      </trkpt>
      <trkpt lat="43.01359" lon="-0.14416">
        <ele>910.03</ele>
        <time>2013-12-07T14:25:19Z</time>
      </trkpt>
      <trkpt lat="43.0135" lon="-0.14436">
        <ele>910.99</ele>
        <time>2013-12-07T14:25:31Z</time>
      </trkpt>
      <trkpt lat="43.01348" lon="-0.14438">
        <ele>911.47</ele>
        <time>2013-12-07T14:25:53Z</time>
      </trkpt>
      <trkpt lat="43.01347" lon="-0.14438">
        <ele>911.47</ele>
        <time>2013-12-07T14:26:20Z</time>
      </trkpt>
      <trkpt lat="43.01347" lon="-0.14437">
        <ele>911.47</ele>
        <time>2013-12-07T14:26:44Z</time>
      </trkpt>
      <trkpt lat="43.01346" lon="-0.14442">
        <ele>911.95</ele>
        <time>2013-12-07T14:27:02Z</time>
      </trkpt>
      <trkpt lat="43.01346" lon="-0.14446">
        <ele>912.43</ele>
        <time>2013-12-07T14:27:04Z</time>
      </trkpt>
      <trkpt lat="43.01344" lon="-0.1446">
        <ele>915.31</ele>
        <time>2013-12-07T14:27:11Z</time>
      </trkpt>
      <trkpt lat="43.0134" lon="-0.14474">
        <ele>915.31</ele>
        <time>2013-12-07T14:27:18Z</time>
      </trkpt>
      <trkpt lat="43.01337" lon="-0.14482">
        <ele>915.79</ele>
        <time>2013-12-07T14:27:22Z</time>
      </trkpt>
      <trkpt lat="43.01334" lon="-0.14494">
        <ele>917.24</ele>
        <time>2013-12-07T14:27:28Z</time>
      </trkpt>
      <trkpt lat="43.01332" lon="-0.14504">
        <ele>917.72</ele>
        <time>2013-12-07T14:27:33Z</time>
      </trkpt>
      <trkpt lat="43.0133" lon="-0.14515">
        <ele>919.16</ele>
        <time>2013-12-07T14:27:39Z</time>
      </trkpt>
      <trkpt lat="43.01326" lon="-0.14526">
        <ele>920.12</ele>
        <time>2013-12-07T14:27:46Z</time>
      </trkpt>
      <trkpt lat="43.0132" lon="-0.1454">
        <ele>922.52</ele>
        <time>2013-12-07T14:27:55Z</time>
      </trkpt>
      <trkpt lat="43.01308" lon="-0.1456">
        <ele>923.96</ele>
        <time>2013-12-07T14:28:09Z</time>
      </trkpt>
      <trkpt lat="43.01308" lon="-0.14561">
        <ele>924.45</ele>
        <time>2013-12-07T14:28:10Z</time>
      </trkpt>
      <trkpt lat="43.01301" lon="-0.14574">
        <ele>925.41</ele>
        <time>2013-12-07T14:28:21Z</time>
      </trkpt>
      <trkpt lat="43.01297" lon="-0.14579">
        <ele>925.89</ele>
        <time>2013-12-07T14:28:25Z</time>
      </trkpt>
      <trkpt lat="43.01293" lon="-0.14586">
        <ele>926.37</ele>
        <time>2013-12-07T14:28:30Z</time>
      </trkpt>
      <trkpt lat="43.01287" lon="-0.14602">
        <ele>927.33</ele>
        <time>2013-12-07T14:28:40Z</time>
      </trkpt>
      <trkpt lat="43.01284" lon="-0.1461">
        <ele>927.81</ele>
        <time>2013-12-07T14:28:45Z</time>
      </trkpt>
      <trkpt lat="43.01274" lon="-0.14636">
        <ele>930.21</ele>
        <time>2013-12-07T14:28:58Z</time>
      </trkpt>
      <trkpt lat="43.01274" lon="-0.14637">
        <ele>931.17</ele>
        <time>2013-12-07T14:28:59Z</time>
      </trkpt>
      <trkpt lat="43.0127" lon="-0.14646">
        <ele>931.65</ele>
        <time>2013-12-07T14:29:04Z</time>
      </trkpt>
      <trkpt lat="43.01264" lon="-0.14652">
        <ele>932.62</ele>
        <time>2013-12-07T14:29:16Z</time>
      </trkpt>
      <trkpt lat="43.01264" lon="-0.14652">
        <ele>932.62</ele>
        <time>2013-12-07T14:29:32Z</time>
      </trkpt>
      <trkpt lat="43.01262" lon="-0.14654">
        <ele>932.62</ele>
        <time>2013-12-07T14:30:01Z</time>
      </trkpt>
      <trkpt lat="43.01262" lon="-0.14655">
        <ele>932.62</ele>
        <time>2013-12-07T14:30:26Z</time>
      </trkpt>
      <trkpt lat="43.01262" lon="-0.14651">
        <ele>932.62</ele>
        <time>2013-12-07T14:30:56Z</time>
      </trkpt>
      <trkpt lat="43.01264" lon="-0.14649">
        <ele>933.1</ele>
        <time>2013-12-07T14:31:30Z</time>
      </trkpt>
      <trkpt lat="43.01264" lon="-0.14652">
        <ele>932.62</ele>
        <time>2013-12-07T14:32:00Z</time>
      </trkpt>
      <trkpt lat="43.01266" lon="-0.14652">
        <ele>933.1</ele>
        <time>2013-12-07T14:32:39Z</time>
      </trkpt>
      <trkpt lat="43.01265" lon="-0.14647">
        <ele>932.62</ele>
        <time>2013-12-07T14:32:45Z</time>
      </trkpt>
      <trkpt lat="43.01267" lon="-0.14643">
        <ele>931.65</ele>
        <time>2013-12-07T14:32:48Z</time>
      </trkpt>
      <trkpt lat="43.01268" lon="-0.14638">
        <ele>931.65</ele>
        <time>2013-12-07T14:32:51Z</time>
      </trkpt>
      <trkpt lat="43.01268" lon="-0.14623">
        <ele>931.65</ele>
        <time>2013-12-07T14:32:58Z</time>
      </trkpt>
      <trkpt lat="43.01271" lon="-0.14598">
        <ele>931.17</ele>
        <time>2013-12-07T14:33:08Z</time>
      </trkpt>
      <trkpt lat="43.01279" lon="-0.14576">
        <ele>930.69</ele>
        <time>2013-12-07T14:33:19Z</time>
      </trkpt>
      <trkpt lat="43.01279" lon="-0.14576">
        <ele>931.17</ele>
        <time>2013-12-07T14:33:21Z</time>
      </trkpt>
      <trkpt lat="43.01281" lon="-0.14565">
        <ele>931.17</ele>
        <time>2013-12-07T14:33:26Z</time>
      </trkpt>
      <trkpt lat="43.01283" lon="-0.14549">
        <ele>933.1</ele>
        <time>2013-12-07T14:33:34Z</time>
      </trkpt>
      <trkpt lat="43.01285" lon="-0.14529">
        <ele>933.58</ele>
        <time>2013-12-07T14:33:43Z</time>
      </trkpt>
      <trkpt lat="43.01284" lon="-0.14511">
        <ele>932.62</ele>
        <time>2013-12-07T14:33:51Z</time>
      </trkpt>
      <trkpt lat="43.01287" lon="-0.1448">
        <ele>930.69</ele>
        <time>2013-12-07T14:34:00Z</time>
      </trkpt>
      <trkpt lat="43.01293" lon="-0.14455">
        <ele>929.73</ele>
        <time>2013-12-07T14:34:05Z</time>
      </trkpt>
      <trkpt lat="43.01294" lon="-0.14407">
        <ele>928.29</ele>
        <time>2013-12-07T14:34:17Z</time>
      </trkpt>
      <trkpt lat="43.01292" lon="-0.14394">
        <ele>928.29</ele>
        <time>2013-12-07T14:34:20Z</time>
      </trkpt>
      <trkpt lat="43.01299" lon="-0.14365">
        <ele>928.29</ele>
        <time>2013-12-07T14:34:29Z</time>
      </trkpt>
      <trkpt lat="43.01303" lon="-0.14346">
        <ele>928.29</ele>
        <time>2013-12-07T14:34:36Z</time>
      </trkpt>
      <trkpt lat="43.0131" lon="-0.14308">
        <ele>927.81</ele>
        <time>2013-12-07T14:34:49Z</time>
      </trkpt>
      <trkpt lat="43.01311" lon="-0.14271">
        <ele>928.29</ele>
        <time>2013-12-07T14:34:58Z</time>
      </trkpt>
      <trkpt lat="43.01315" lon="-0.14248">
        <ele>927.81</ele>
        <time>2013-12-07T14:35:07Z</time>
      </trkpt>
      <trkpt lat="43.0132" lon="-0.14235">
        <ele>928.77</ele>
        <time>2013-12-07T14:35:14Z</time>
      </trkpt>
      <trkpt lat="43.01322" lon="-0.14231">
        <ele>929.25</ele>
        <time>2013-12-07T14:35:16Z</time>
      </trkpt>
      <trkpt lat="43.01321" lon="-0.14222">
        <ele>928.77</ele>
        <time>2013-12-07T14:35:20Z</time>
      </trkpt>
      <trkpt lat="43.0132" lon="-0.14181">
        <ele>927.81</ele>
        <time>2013-12-07T14:35:31Z</time>
      </trkpt>
      <trkpt lat="43.01316" lon="-0.14147">
        <ele>924.45</ele>
        <time>2013-12-07T14:35:40Z</time>
      </trkpt>
      <trkpt lat="43.01316" lon="-0.14142">
        <ele>924.45</ele>
        <time>2013-12-07T14:35:43Z</time>
      </trkpt>
      <trkpt lat="43.01312" lon="-0.14131">
        <ele>924.93</ele>
        <time>2013-12-07T14:35:47Z</time>
      </trkpt>
      <trkpt lat="43.01308" lon="-0.14116">
        <ele>925.41</ele>
        <time>2013-12-07T14:35:50Z</time>
      </trkpt>
      <trkpt lat="43.01307" lon="-0.14107">
        <ele>925.89</ele>
        <time>2013-12-07T14:35:52Z</time>
      </trkpt>
      <trkpt lat="43.01304" lon="-0.14092">
        <ele>925.89</ele>
        <time>2013-12-07T14:35:57Z</time>
      </trkpt>
      <trkpt lat="43.01301" lon="-0.14062">
        <ele>924.45</ele>
        <time>2013-12-07T14:36:06Z</time>
      </trkpt>
      <trkpt lat="43.013" lon="-0.14059">
        <ele>924.45</ele>
        <time>2013-12-07T14:36:07Z</time>
      </trkpt>
      <trkpt lat="43.01292" lon="-0.14031">
        <ele>923.48</ele>
        <time>2013-12-07T14:36:16Z</time>
      </trkpt>
      <trkpt lat="43.01288" lon="-0.14025">
        <ele>923</ele>
        <time>2013-12-07T14:36:19Z</time>
      </trkpt>
      <trkpt lat="43.01283" lon="-0.14022">
        <ele>923</ele>
        <time>2013-12-07T14:36:21Z</time>
      </trkpt>
      <trkpt lat="43.01266" lon="-0.13998">
        <ele>918.68</ele>
        <time>2013-12-07T14:36:28Z</time>
      </trkpt>
      <trkpt lat="43.01251" lon="-0.13977">
        <ele>918.2</ele>
        <time>2013-12-07T14:36:33Z</time>
      </trkpt>
      <trkpt lat="43.01236" lon="-0.13955">
        <ele>917.24</ele>
        <time>2013-12-07T14:36:38Z</time>
      </trkpt>
      <trkpt lat="43.01231" lon="-0.1395">
        <ele>917.72</ele>
        <time>2013-12-07T14:36:40Z</time>
      </trkpt>
      <trkpt lat="43.01215" lon="-0.13924">
        <ele>917.24</ele>
        <time>2013-12-07T14:36:50Z</time>
      </trkpt>
      <trkpt lat="43.01208" lon="-0.13917">
        <ele>916.75</ele>
        <time>2013-12-07T14:36:54Z</time>
      </trkpt>
      <trkpt lat="43.01199" lon="-0.13907">
        <ele>916.75</ele>
        <time>2013-12-07T14:37:00Z</time>
      </trkpt>
      <trkpt lat="43.01188" lon="-0.13895">
        <ele>917.72</ele>
        <time>2013-12-07T14:37:10Z</time>
      </trkpt>
      <trkpt lat="43.01186" lon="-0.13893">
        <ele>917.72</ele>
        <time>2013-12-07T14:37:12Z</time>
      </trkpt>
      <trkpt lat="43.01171" lon="-0.13868">
        <ele>918.2</ele>
        <time>2013-12-07T14:37:22Z</time>
      </trkpt>
      <trkpt lat="43.01165" lon="-0.13863">
        <ele>918.68</ele>
        <time>2013-12-07T14:37:25Z</time>
      </trkpt>
      <trkpt lat="43.01163" lon="-0.13859">
        <ele>918.68</ele>
        <time>2013-12-07T14:37:28Z</time>
      </trkpt>
      <trkpt lat="43.01158" lon="-0.13851">
        <ele>920.12</ele>
        <time>2013-12-07T14:37:33Z</time>
      </trkpt>
      <trkpt lat="43.01158" lon="-0.13845">
        <ele>919.64</ele>
        <time>2013-12-07T14:37:36Z</time>
      </trkpt>
      <trkpt lat="43.01158" lon="-0.1384">
        <ele>920.12</ele>
        <time>2013-12-07T14:37:38Z</time>
      </trkpt>
      <trkpt lat="43.01155" lon="-0.1382">
        <ele>919.16</ele>
        <time>2013-12-07T14:37:47Z</time>
      </trkpt>
      <trkpt lat="43.01153" lon="-0.13811">
        <ele>919.64</ele>
        <time>2013-12-07T14:37:50Z</time>
      </trkpt>
      <trkpt lat="43.01153" lon="-0.13803">
        <ele>919.64</ele>
        <time>2013-12-07T14:37:54Z</time>
      </trkpt>
      <trkpt lat="43.0115" lon="-0.13779">
        <ele>920.6</ele>
        <time>2013-12-07T14:38:06Z</time>
      </trkpt>
      <trkpt lat="43.0115" lon="-0.13777">
        <ele>920.12</ele>
        <time>2013-12-07T14:38:07Z</time>
      </trkpt>
      <trkpt lat="43.01146" lon="-0.13767">
        <ele>920.6</ele>
        <time>2013-12-07T14:38:12Z</time>
      </trkpt>
      <trkpt lat="43.01144" lon="-0.13761">
        <ele>920.6</ele>
        <time>2013-12-07T14:38:14Z</time>
      </trkpt>
      <trkpt lat="43.01133" lon="-0.13747">
        <ele>919.16</ele>
        <time>2013-12-07T14:38:19Z</time>
      </trkpt>
      <trkpt lat="43.01128" lon="-0.13741">
        <ele>919.64</ele>
        <time>2013-12-07T14:38:22Z</time>
      </trkpt>
      <trkpt lat="43.01119" lon="-0.13731">
        <ele>920.12</ele>
        <time>2013-12-07T14:38:28Z</time>
      </trkpt>
      <trkpt lat="43.01114" lon="-0.13723">
        <ele>921.08</ele>
        <time>2013-12-07T14:38:31Z</time>
      </trkpt>
      <trkpt lat="43.01105" lon="-0.13708">
        <ele>922.52</ele>
        <time>2013-12-07T14:38:37Z</time>
      </trkpt>
      <trkpt lat="43.01096" lon="-0.13696">
        <ele>923</ele>
        <time>2013-12-07T14:38:42Z</time>
      </trkpt>
      <trkpt lat="43.0108" lon="-0.13688">
        <ele>924.45</ele>
        <time>2013-12-07T14:38:51Z</time>
      </trkpt>
      <trkpt lat="43.01072" lon="-0.13689">
        <ele>925.41</ele>
        <time>2013-12-07T14:38:57Z</time>
      </trkpt>
      <trkpt lat="43.01063" lon="-0.13688">
        <ele>926.37</ele>
        <time>2013-12-07T14:39:02Z</time>
      </trkpt>
      <trkpt lat="43.01055" lon="-0.13687">
        <ele>927.33</ele>
        <time>2013-12-07T14:39:08Z</time>
      </trkpt>
      <trkpt lat="43.01039" lon="-0.13682">
        <ele>930.21</ele>
        <time>2013-12-07T14:39:20Z</time>
      </trkpt>
      <trkpt lat="43.0103" lon="-0.13677">
        <ele>931.17</ele>
        <time>2013-12-07T14:39:27Z</time>
      </trkpt>
      <trkpt lat="43.01027" lon="-0.13677">
        <ele>931.65</ele>
        <time>2013-12-07T14:39:30Z</time>
      </trkpt>
      <trkpt lat="43.01019" lon="-0.13675">
        <ele>931.17</ele>
        <time>2013-12-07T14:39:49Z</time>
      </trkpt>
      <trkpt lat="43.01021" lon="-0.13672">
        <ele>931.17</ele>
        <time>2013-12-07T14:40:26Z</time>
      </trkpt>
      <trkpt lat="43.0101" lon="-0.13669">
        <ele>931.17</ele>
        <time>2013-12-07T14:40:41Z</time>
      </trkpt>
      <trkpt lat="43.0099" lon="-0.13657">
        <ele>932.14</ele>
        <time>2013-12-07T14:40:53Z</time>
      </trkpt>
      <trkpt lat="43.00986" lon="-0.13652">
        <ele>933.1</ele>
        <time>2013-12-07T14:40:56Z</time>
      </trkpt>
      <trkpt lat="43.00979" lon="-0.13645">
        <ele>933.58</ele>
        <time>2013-12-07T14:41:01Z</time>
      </trkpt>
      <trkpt lat="43.00969" lon="-0.13635">
        <ele>935.02</ele>
        <time>2013-12-07T14:41:07Z</time>
      </trkpt>
      <trkpt lat="43.00954" lon="-0.13626">
        <ele>937.9</ele>
        <time>2013-12-07T14:41:19Z</time>
      </trkpt>
      <trkpt lat="43.00943" lon="-0.1362">
        <ele>937.9</ele>
        <time>2013-12-07T14:41:30Z</time>
      </trkpt>
      <trkpt lat="43.00936" lon="-0.13619">
        <ele>937.42</ele>
        <time>2013-12-07T14:41:35Z</time>
      </trkpt>
      <trkpt lat="43.00922" lon="-0.13617">
        <ele>937.9</ele>
        <time>2013-12-07T14:41:43Z</time>
      </trkpt>
      <trkpt lat="43.00905" lon="-0.13617">
        <ele>938.38</ele>
        <time>2013-12-07T14:41:52Z</time>
      </trkpt>
      <trkpt lat="43.00902" lon="-0.13617">
        <ele>938.86</ele>
        <time>2013-12-07T14:41:54Z</time>
      </trkpt>
      <trkpt lat="43.00883" lon="-0.13616">
        <ele>939.83</ele>
        <time>2013-12-07T14:42:05Z</time>
      </trkpt>
      <trkpt lat="43.00875" lon="-0.13616">
        <ele>939.83</ele>
        <time>2013-12-07T14:42:10Z</time>
      </trkpt>
      <trkpt lat="43.00866" lon="-0.13615">
        <ele>939.83</ele>
        <time>2013-12-07T14:42:14Z</time>
      </trkpt>
      <trkpt lat="43.00847" lon="-0.13618">
        <ele>940.79</ele>
        <time>2013-12-07T14:42:24Z</time>
      </trkpt>
      <trkpt lat="43.00825" lon="-0.1362">
        <ele>940.31</ele>
        <time>2013-12-07T14:42:36Z</time>
      </trkpt>
      <trkpt lat="43.00819" lon="-0.1362">
        <ele>939.83</ele>
        <time>2013-12-07T14:42:40Z</time>
      </trkpt>
      <trkpt lat="43.00805" lon="-0.13626">
        <ele>940.79</ele>
        <time>2013-12-07T14:42:50Z</time>
      </trkpt>
      <trkpt lat="43.00796" lon="-0.13626">
        <ele>940.31</ele>
        <time>2013-12-07T14:42:55Z</time>
      </trkpt>
      <trkpt lat="43.00765" lon="-0.13632">
        <ele>938.38</ele>
        <time>2013-12-07T14:43:07Z</time>
      </trkpt>
      <trkpt lat="43.00751" lon="-0.1363">
        <ele>935.98</ele>
        <time>2013-12-07T14:43:11Z</time>
      </trkpt>
      <trkpt lat="43.00728" lon="-0.13628">
        <ele>934.06</ele>
        <time>2013-12-07T14:43:15Z</time>
      </trkpt>
      <trkpt lat="43.00707" lon="-0.13619">
        <ele>932.62</ele>
        <time>2013-12-07T14:43:19Z</time>
      </trkpt>
      <trkpt lat="43.00681" lon="-0.13603">
        <ele>931.65</ele>
        <time>2013-12-07T14:43:25Z</time>
      </trkpt>
      <trkpt lat="43.00673" lon="-0.13599">
        <ele>932.14</ele>
        <time>2013-12-07T14:43:29Z</time>
      </trkpt>
      <trkpt lat="43.00662" lon="-0.13592">
        <ele>932.62</ele>
        <time>2013-12-07T14:43:34Z</time>
      </trkpt>
      <trkpt lat="43.00639" lon="-0.13571">
        <ele>933.1</ele>
        <time>2013-12-07T14:43:45Z</time>
      </trkpt>
      <trkpt lat="43.00622" lon="-0.13556">
        <ele>933.1</ele>
        <time>2013-12-07T14:43:52Z</time>
      </trkpt>
      <trkpt lat="43.00592" lon="-0.13529">
        <ele>934.06</ele>
        <time>2013-12-07T14:44:03Z</time>
      </trkpt>
      <trkpt lat="43.00562" lon="-0.13509">
        <ele>934.54</ele>
        <time>2013-12-07T14:44:15Z</time>
      </trkpt>
      <trkpt lat="43.00538" lon="-0.13496">
        <ele>935.98</ele>
        <time>2013-12-07T14:44:24Z</time>
      </trkpt>
      <trkpt lat="43.00531" lon="-0.13493">
        <ele>937.42</ele>
        <time>2013-12-07T14:44:28Z</time>
      </trkpt>
      <trkpt lat="43.00525" lon="-0.13487">
        <ele>937.42</ele>
        <time>2013-12-07T14:44:32Z</time>
      </trkpt>
      <trkpt lat="43.00508" lon="-0.1347">
        <ele>936.94</ele>
        <time>2013-12-07T14:44:45Z</time>
      </trkpt>
      <trkpt lat="43.00487" lon="-0.13453">
        <ele>936.46</ele>
        <time>2013-12-07T14:44:58Z</time>
      </trkpt>
      <trkpt lat="43.00477" lon="-0.13445">
        <ele>935.98</ele>
        <time>2013-12-07T14:45:06Z</time>
      </trkpt>
      <trkpt lat="43.00468" lon="-0.13443">
        <ele>936.94</ele>
        <time>2013-12-07T14:45:18Z</time>
      </trkpt>
      <trkpt lat="43.00469" lon="-0.13441">
        <ele>935.5</ele>
        <time>2013-12-07T14:45:32Z</time>
      </trkpt>
      <trkpt lat="43.00469" lon="-0.13441">
        <ele>935.5</ele>
        <time>2013-12-07T14:45:58Z</time>
      </trkpt>
      <trkpt lat="43.00468" lon="-0.13439">
        <ele>936.46</ele>
        <time>2013-12-07T14:46:26Z</time>
      </trkpt>
      <trkpt lat="43.00466" lon="-0.13439">
        <ele>936.46</ele>
        <time>2013-12-07T14:46:30Z</time>
      </trkpt>
      <trkpt lat="43.00448" lon="-0.13441">
        <ele>936.94</ele>
        <time>2013-12-07T14:46:40Z</time>
      </trkpt>
      <trkpt lat="43.00446" lon="-0.13441">
        <ele>936.46</ele>
        <time>2013-12-07T14:46:41Z</time>
      </trkpt>
      <trkpt lat="43.00417" lon="-0.13439">
        <ele>937.42</ele>
        <time>2013-12-07T14:46:53Z</time>
      </trkpt>
      <trkpt lat="43.00385" lon="-0.13434">
        <ele>936.94</ele>
        <time>2013-12-07T14:47:06Z</time>
      </trkpt>
      <trkpt lat="43.00352" lon="-0.13403">
        <ele>935.98</ele>
        <time>2013-12-07T14:47:19Z</time>
      </trkpt>
      <trkpt lat="43.00324" lon="-0.13379">
        <ele>935.02</ele>
        <time>2013-12-07T14:47:30Z</time>
      </trkpt>
      <trkpt lat="43.00308" lon="-0.1334">
        <ele>934.54</ele>
        <time>2013-12-07T14:47:42Z</time>
      </trkpt>
      <trkpt lat="43.00283" lon="-0.13294">
        <ele>934.54</ele>
        <time>2013-12-07T14:47:55Z</time>
      </trkpt>
      <trkpt lat="43.0027" lon="-0.13241">
        <ele>934.06</ele>
        <time>2013-12-07T14:48:07Z</time>
      </trkpt>
      <trkpt lat="43.00258" lon="-0.13197">
        <ele>932.62</ele>
        <time>2013-12-07T14:48:20Z</time>
      </trkpt>
      <trkpt lat="43.00256" lon="-0.13179">
        <ele>931.17</ele>
        <time>2013-12-07T14:48:24Z</time>
      </trkpt>
      <trkpt lat="43.00253" lon="-0.13162">
        <ele>929.25</ele>
        <time>2013-12-07T14:48:27Z</time>
      </trkpt>
      <trkpt lat="43.00252" lon="-0.13157">
        <ele>928.77</ele>
        <time>2013-12-07T14:48:28Z</time>
      </trkpt>
      <trkpt lat="43.00249" lon="-0.13129">
        <ele>926.85</ele>
        <time>2013-12-07T14:48:33Z</time>
      </trkpt>
      <trkpt lat="43.0024" lon="-0.13091">
        <ele>926.37</ele>
        <time>2013-12-07T14:48:40Z</time>
      </trkpt>
      <trkpt lat="43.00228" lon="-0.13066">
        <ele>925.41</ele>
        <time>2013-12-07T14:48:51Z</time>
      </trkpt>
      <trkpt lat="43.00228" lon="-0.13065">
        <ele>925.89</ele>
        <time>2013-12-07T14:49:10Z</time>
      </trkpt>
      <trkpt lat="43.00228" lon="-0.13064">
        <ele>925.89</ele>
        <time>2013-12-07T14:49:30Z</time>
      </trkpt>
      <trkpt lat="43.00229" lon="-0.13064">
        <ele>924.93</ele>
        <time>2013-12-07T14:50:04Z</time>
      </trkpt>
      <trkpt lat="43.00226" lon="-0.13057">
        <ele>924.93</ele>
        <time>2013-12-07T14:50:25Z</time>
      </trkpt>
      <trkpt lat="43.00213" lon="-0.13021">
        <ele>924.45</ele>
        <time>2013-12-07T14:50:35Z</time>
      </trkpt>
      <trkpt lat="43.00206" lon="-0.12994">
        <ele>923.96</ele>
        <time>2013-12-07T14:50:43Z</time>
      </trkpt>
      <trkpt lat="43.00204" lon="-0.12984">
        <ele>923</ele>
        <time>2013-12-07T14:50:45Z</time>
      </trkpt>
      <trkpt lat="43.00193" lon="-0.12941">
        <ele>920.12</ele>
        <time>2013-12-07T14:50:52Z</time>
      </trkpt>
      <trkpt lat="43.0018" lon="-0.12924">
        <ele>917.72</ele>
        <time>2013-12-07T14:50:56Z</time>
      </trkpt>
      <trkpt lat="43.00171" lon="-0.12913">
        <ele>915.79</ele>
        <time>2013-12-07T14:50:58Z</time>
      </trkpt>
      <trkpt lat="43.00154" lon="-0.12886">
        <ele>911.47</ele>
        <time>2013-12-07T14:51:03Z</time>
      </trkpt>
      <trkpt lat="43.00142" lon="-0.12871">
        <ele>909.06</ele>
        <time>2013-12-07T14:51:07Z</time>
      </trkpt>
      <trkpt lat="43.00135" lon="-0.12858">
        <ele>908.1</ele>
        <time>2013-12-07T14:51:10Z</time>
      </trkpt>
      <trkpt lat="43.0013" lon="-0.12847">
        <ele>906.18</ele>
        <time>2013-12-07T14:51:12Z</time>
      </trkpt>
      <trkpt lat="43.00126" lon="-0.12837">
        <ele>905.22</ele>
        <time>2013-12-07T14:51:14Z</time>
      </trkpt>
      <trkpt lat="43.00116" lon="-0.12819">
        <ele>902.82</ele>
        <time>2013-12-07T14:51:17Z</time>
      </trkpt>
      <trkpt lat="43.00104" lon="-0.12797">
        <ele>898.97</ele>
        <time>2013-12-07T14:51:21Z</time>
      </trkpt>
      <trkpt lat="43.00086" lon="-0.12792">
        <ele>893.68</ele>
        <time>2013-12-07T14:51:25Z</time>
      </trkpt>
      <trkpt lat="43.00074" lon="-0.12795">
        <ele>890.32</ele>
        <time>2013-12-07T14:51:27Z</time>
      </trkpt>
      <trkpt lat="43.00062" lon="-0.12797">
        <ele>888.4</ele>
        <time>2013-12-07T14:51:29Z</time>
      </trkpt>
      <trkpt lat="43.00042" lon="-0.1279">
        <ele>883.59</ele>
        <time>2013-12-07T14:51:35Z</time>
      </trkpt>
      <trkpt lat="43.0004" lon="-0.12789">
        <ele>882.63</ele>
        <time>2013-12-07T14:51:36Z</time>
      </trkpt>
      <trkpt lat="43.00033" lon="-0.12784">
        <ele>880.71</ele>
        <time>2013-12-07T14:51:39Z</time>
      </trkpt>
      <trkpt lat="43.00019" lon="-0.12774">
        <ele>877.34</ele>
        <time>2013-12-07T14:51:43Z</time>
      </trkpt>
      <trkpt lat="43.00015" lon="-0.12772">
        <ele>876.86</ele>
        <time>2013-12-07T14:51:44Z</time>
      </trkpt>
      <trkpt lat="42.99996" lon="-0.12765">
        <ele>872.05</ele>
        <time>2013-12-07T14:51:49Z</time>
      </trkpt>
      <trkpt lat="42.99978" lon="-0.12763">
        <ele>870.61</ele>
        <time>2013-12-07T14:51:55Z</time>
      </trkpt>
      <trkpt lat="42.99966" lon="-0.12751">
        <ele>866.77</ele>
        <time>2013-12-07T14:52:01Z</time>
      </trkpt>
      <trkpt lat="42.99963" lon="-0.12738">
        <ele>864.36</ele>
        <time>2013-12-07T14:52:04Z</time>
      </trkpt>
      <trkpt lat="42.99952" lon="-0.12717">
        <ele>859.08</ele>
        <time>2013-12-07T14:52:09Z</time>
      </trkpt>
      <trkpt lat="42.99945" lon="-0.12702">
        <ele>856.19</ele>
        <time>2013-12-07T14:52:12Z</time>
      </trkpt>
      <trkpt lat="42.99941" lon="-0.1269">
        <ele>853.79</ele>
        <time>2013-12-07T14:52:14Z</time>
      </trkpt>
      <trkpt lat="42.99929" lon="-0.12665">
        <ele>849.46</ele>
        <time>2013-12-07T14:52:19Z</time>
      </trkpt>
      <trkpt lat="42.99926" lon="-0.12662">
        <ele>848.5</ele>
        <time>2013-12-07T14:52:20Z</time>
      </trkpt>
      <trkpt lat="42.99914" lon="-0.12641">
        <ele>843.69</ele>
        <time>2013-12-07T14:52:24Z</time>
      </trkpt>
      <trkpt lat="42.9991" lon="-0.12636">
        <ele>841.77</ele>
        <time>2013-12-07T14:52:27Z</time>
      </trkpt>
      <trkpt lat="42.99907" lon="-0.12632">
        <ele>839.85</ele>
        <time>2013-12-07T14:52:31Z</time>
      </trkpt>
      <trkpt lat="42.99911" lon="-0.12633">
        <ele>839.37</ele>
        <time>2013-12-07T14:52:47Z</time>
      </trkpt>
      <trkpt lat="42.9991" lon="-0.12629">
        <ele>838.89</ele>
        <time>2013-12-07T14:53:18Z</time>
      </trkpt>
      <trkpt lat="42.99906" lon="-0.12624">
        <ele>838.41</ele>
        <time>2013-12-07T14:53:44Z</time>
      </trkpt>
      <trkpt lat="42.99901" lon="-0.12618">
        <ele>837.93</ele>
        <time>2013-12-07T14:54:05Z</time>
      </trkpt>
      <trkpt lat="42.99899" lon="-0.12616">
        <ele>836.96</ele>
        <time>2013-12-07T14:54:06Z</time>
      </trkpt>
      <trkpt lat="42.99886" lon="-0.12607">
        <ele>833.6</ele>
        <time>2013-12-07T14:54:12Z</time>
      </trkpt>
      <trkpt lat="42.9988" lon="-0.126">
        <ele>829.76</ele>
        <time>2013-12-07T14:54:19Z</time>
      </trkpt>
      <trkpt lat="42.99869" lon="-0.12596">
        <ele>828.31</ele>
        <time>2013-12-07T14:54:22Z</time>
      </trkpt>
      <trkpt lat="42.99837" lon="-0.1259">
        <ele>824.47</ele>
        <time>2013-12-07T14:54:29Z</time>
      </trkpt>
      <trkpt lat="42.99828" lon="-0.12589">
        <ele>822.55</ele>
        <time>2013-12-07T14:54:31Z</time>
      </trkpt>
      <trkpt lat="42.99813" lon="-0.12586">
        <ele>819.66</ele>
        <time>2013-12-07T14:54:35Z</time>
      </trkpt>
      <trkpt lat="42.99809" lon="-0.12584">
        <ele>818.7</ele>
        <time>2013-12-07T14:54:37Z</time>
      </trkpt>
      <trkpt lat="42.99807" lon="-0.12582">
        <ele>817.74</ele>
        <time>2013-12-07T14:54:39Z</time>
      </trkpt>
      <trkpt lat="42.99807" lon="-0.1258">
        <ele>816.3</ele>
        <time>2013-12-07T14:54:41Z</time>
      </trkpt>
      <trkpt lat="42.99804" lon="-0.12566">
        <ele>811.97</ele>
        <time>2013-12-07T14:54:46Z</time>
      </trkpt>
      <trkpt lat="42.998" lon="-0.12557">
        <ele>810.53</ele>
        <time>2013-12-07T14:54:48Z</time>
      </trkpt>
      <trkpt lat="42.99792" lon="-0.12539">
        <ele>806.2</ele>
        <time>2013-12-07T14:54:52Z</time>
      </trkpt>
      <trkpt lat="42.99784" lon="-0.12521">
        <ele>801.88</ele>
        <time>2013-12-07T14:54:56Z</time>
      </trkpt>
      <trkpt lat="42.99777" lon="-0.12509">
        <ele>798.99</ele>
        <time>2013-12-07T14:55:00Z</time>
      </trkpt>
      <trkpt lat="42.99775" lon="-0.12494">
        <ele>795.63</ele>
        <time>2013-12-07T14:55:04Z</time>
      </trkpt>
      <trkpt lat="42.99774" lon="-0.12493">
        <ele>795.15</ele>
        <time>2013-12-07T14:55:05Z</time>
      </trkpt>
      <trkpt lat="42.99767" lon="-0.1249">
        <ele>793.22</ele>
        <time>2013-12-07T14:55:14Z</time>
      </trkpt>
      <trkpt lat="42.99764" lon="-0.12488">
        <ele>792.74</ele>
        <time>2013-12-07T14:55:43Z</time>
      </trkpt>
      <trkpt lat="42.99756" lon="-0.1249">
        <ele>789.86</ele>
        <time>2013-12-07T14:55:46Z</time>
      </trkpt>
      <trkpt lat="42.99751" lon="-0.12491">
        <ele>789.38</ele>
        <time>2013-12-07T14:55:48Z</time>
      </trkpt>
      <trkpt lat="42.9974" lon="-0.12503">
        <ele>785.53</ele>
        <time>2013-12-07T14:55:53Z</time>
      </trkpt>
      <trkpt lat="42.99731" lon="-0.12507">
        <ele>782.17</ele>
        <time>2013-12-07T14:55:56Z</time>
      </trkpt>
      <trkpt lat="42.99723" lon="-0.12506">
        <ele>778.81</ele>
        <time>2013-12-07T14:55:59Z</time>
      </trkpt>
      <trkpt lat="42.99721" lon="-0.12504">
        <ele>778.32</ele>
        <time>2013-12-07T14:56:00Z</time>
      </trkpt>
      <trkpt lat="42.99721" lon="-0.12506">
        <ele>777.36</ele>
        <time>2013-12-07T14:56:12Z</time>
      </trkpt>
      <trkpt lat="42.99721" lon="-0.12508">
        <ele>777.36</ele>
        <time>2013-12-07T14:56:19Z</time>
      </trkpt>
      <trkpt lat="42.99717" lon="-0.12516">
        <ele>775.92</ele>
        <time>2013-12-07T14:56:23Z</time>
      </trkpt>
      <trkpt lat="42.99714" lon="-0.12525">
        <ele>774</ele>
        <time>2013-12-07T14:56:25Z</time>
      </trkpt>
      <trkpt lat="42.99707" lon="-0.12547">
        <ele>769.67</ele>
        <time>2013-12-07T14:56:29Z</time>
      </trkpt>
      <trkpt lat="42.99691" lon="-0.12572">
        <ele>764.39</ele>
        <time>2013-12-07T14:56:33Z</time>
      </trkpt>
      <trkpt lat="42.99673" lon="-0.126">
        <ele>760.06</ele>
        <time>2013-12-07T14:56:37Z</time>
      </trkpt>
      <trkpt lat="42.99655" lon="-0.12626">
        <ele>756.21</ele>
        <time>2013-12-07T14:56:41Z</time>
      </trkpt>
      <trkpt lat="42.9965" lon="-0.12632">
        <ele>754.29</ele>
        <time>2013-12-07T14:56:42Z</time>
      </trkpt>
      <trkpt lat="42.99627" lon="-0.12652">
        <ele>749.97</ele>
        <time>2013-12-07T14:56:46Z</time>
      </trkpt>
      <trkpt lat="42.99607" lon="-0.12672">
        <ele>745.64</ele>
        <time>2013-12-07T14:56:50Z</time>
      </trkpt>
      <trkpt lat="42.99586" lon="-0.12686">
        <ele>739.87</ele>
        <time>2013-12-07T14:56:54Z</time>
      </trkpt>
      <trkpt lat="42.99575" lon="-0.12704">
        <ele>735.07</ele>
        <time>2013-12-07T14:56:58Z</time>
      </trkpt>
      <trkpt lat="42.9957" lon="-0.12709">
        <ele>733.62</ele>
        <time>2013-12-07T14:57:00Z</time>
      </trkpt>
      <trkpt lat="42.99554" lon="-0.127">
        <ele>730.26</ele>
        <time>2013-12-07T14:57:03Z</time>
      </trkpt>
      <trkpt lat="42.99537" lon="-0.12688">
        <ele>725.45</ele>
        <time>2013-12-07T14:57:06Z</time>
      </trkpt>
      <trkpt lat="42.99518" lon="-0.12679">
        <ele>722.09</ele>
        <time>2013-12-07T14:57:09Z</time>
      </trkpt>
      <trkpt lat="42.99499" lon="-0.1267">
        <ele>718.72</ele>
        <time>2013-12-07T14:57:12Z</time>
      </trkpt>
      <trkpt lat="42.99487" lon="-0.12665">
        <ele>717.28</ele>
        <time>2013-12-07T14:57:14Z</time>
      </trkpt>
      <trkpt lat="42.99476" lon="-0.12656">
        <ele>713.92</ele>
        <time>2013-12-07T14:57:16Z</time>
      </trkpt>
      <trkpt lat="42.99458" lon="-0.12642">
        <ele>709.59</ele>
        <time>2013-12-07T14:57:20Z</time>
      </trkpt>
      <trkpt lat="42.99444" lon="-0.12634">
        <ele>707.19</ele>
        <time>2013-12-07T14:57:24Z</time>
      </trkpt>
      <trkpt lat="42.99423" lon="-0.1262">
        <ele>702.38</ele>
        <time>2013-12-07T14:57:30Z</time>
      </trkpt>
      <trkpt lat="42.99414" lon="-0.12602">
        <ele>699.5</ele>
        <time>2013-12-07T14:57:33Z</time>
      </trkpt>
      <trkpt lat="42.99396" lon="-0.12573">
        <ele>692.77</ele>
        <time>2013-12-07T14:57:37Z</time>
      </trkpt>
      <trkpt lat="42.99385" lon="-0.12561">
        <ele>690.36</ele>
        <time>2013-12-07T14:57:39Z</time>
      </trkpt>
      <trkpt lat="42.99372" lon="-0.12532">
        <ele>686.04</ele>
        <time>2013-12-07T14:57:43Z</time>
      </trkpt>
      <trkpt lat="42.99367" lon="-0.12507">
        <ele>682.19</ele>
        <time>2013-12-07T14:57:46Z</time>
      </trkpt>
      <trkpt lat="42.99365" lon="-0.12499">
        <ele>681.23</ele>
        <time>2013-12-07T14:57:47Z</time>
      </trkpt>
      <trkpt lat="42.99356" lon="-0.12471">
        <ele>677.39</ele>
        <time>2013-12-07T14:57:52Z</time>
      </trkpt>
      <trkpt lat="42.99354" lon="-0.1247">
        <ele>677.39</ele>
        <time>2013-12-07T14:57:53Z</time>
      </trkpt>
      <trkpt lat="42.99347" lon="-0.12468">
        <ele>675.46</ele>
        <time>2013-12-07T14:57:57Z</time>
      </trkpt>
      <trkpt lat="42.99353" lon="-0.12444">
        <ele>673.54</ele>
        <time>2013-12-07T14:58:03Z</time>
      </trkpt>
      <trkpt lat="42.9935" lon="-0.12427">
        <ele>672.58</ele>
        <time>2013-12-07T14:58:07Z</time>
      </trkpt>
      <trkpt lat="42.9935" lon="-0.12418">
        <ele>670.66</ele>
        <time>2013-12-07T14:58:11Z</time>
      </trkpt>
      <trkpt lat="42.99352" lon="-0.12405">
        <ele>667.29</ele>
        <time>2013-12-07T14:58:16Z</time>
      </trkpt>
      <trkpt lat="42.99353" lon="-0.12403">
        <ele>666.81</ele>
        <time>2013-12-07T14:58:17Z</time>
      </trkpt>
      <trkpt lat="42.99354" lon="-0.12402">
        <ele>665.85</ele>
        <time>2013-12-07T14:58:18Z</time>
      </trkpt>
      <trkpt lat="42.99362" lon="-0.12395">
        <ele>662.97</ele>
        <time>2013-12-07T14:58:22Z</time>
      </trkpt>
      <trkpt lat="42.99378" lon="-0.12381">
        <ele>659.12</ele>
        <time>2013-12-07T14:58:27Z</time>
      </trkpt>
      <trkpt lat="42.99391" lon="-0.12364">
        <ele>655.76</ele>
        <time>2013-12-07T14:58:31Z</time>
      </trkpt>
      <trkpt lat="42.99393" lon="-0.12353">
        <ele>654.31</ele>
        <time>2013-12-07T14:58:33Z</time>
      </trkpt>
      <trkpt lat="42.99396" lon="-0.12327">
        <ele>650.95</ele>
        <time>2013-12-07T14:58:37Z</time>
      </trkpt>
      <trkpt lat="42.99397" lon="-0.12308">
        <ele>648.55</ele>
        <time>2013-12-07T14:58:40Z</time>
      </trkpt>
      <trkpt lat="42.99395" lon="-0.12283">
        <ele>645.66</ele>
        <time>2013-12-07T14:58:43Z</time>
      </trkpt>
      <trkpt lat="42.99386" lon="-0.12254">
        <ele>642.3</ele>
        <time>2013-12-07T14:58:47Z</time>
      </trkpt>
      <trkpt lat="42.99377" lon="-0.12235">
        <ele>640.86</ele>
        <time>2013-12-07T14:58:50Z</time>
      </trkpt>
      <trkpt lat="42.99382" lon="-0.12222">
        <ele>638.45</ele>
        <time>2013-12-07T14:58:55Z</time>
      </trkpt>
      <trkpt lat="42.99389" lon="-0.12215">
        <ele>638.45</ele>
        <time>2013-12-07T14:58:57Z</time>
      </trkpt>
      <trkpt lat="42.99387" lon="-0.12186">
        <ele>637.49</ele>
        <time>2013-12-07T14:59:03Z</time>
      </trkpt>
      <trkpt lat="42.99397" lon="-0.12157">
        <ele>635.57</ele>
        <time>2013-12-07T14:59:09Z</time>
      </trkpt>
      <trkpt lat="42.99391" lon="-0.12149">
        <ele>634.13</ele>
        <time>2013-12-07T14:59:11Z</time>
      </trkpt>
      <trkpt lat="42.99379" lon="-0.12134">
        <ele>632.2</ele>
        <time>2013-12-07T14:59:14Z</time>
      </trkpt>
      <trkpt lat="42.99362" lon="-0.12106">
        <ele>629.32</ele>
        <time>2013-12-07T14:59:20Z</time>
      </trkpt>
      <trkpt lat="42.99369" lon="-0.12091">
        <ele>627.88</ele>
        <time>2013-12-07T14:59:25Z</time>
      </trkpt>
      <trkpt lat="42.99385" lon="-0.12068">
        <ele>625.47</ele>
        <time>2013-12-07T14:59:31Z</time>
      </trkpt>
      <trkpt lat="42.99411" lon="-0.12055">
        <ele>627.4</ele>
        <time>2013-12-07T14:59:39Z</time>
      </trkpt>
      <trkpt lat="42.99438" lon="-0.1204">
        <ele>630.28</ele>
        <time>2013-12-07T14:59:48Z</time>
      </trkpt>
      <trkpt lat="42.99444" lon="-0.12034">
        <ele>631.24</ele>
        <time>2013-12-07T14:59:50Z</time>
      </trkpt>
      <trkpt lat="42.9945" lon="-0.1203">
        <ele>632.2</ele>
        <time>2013-12-07T14:59:52Z</time>
      </trkpt>
      <trkpt lat="42.99459" lon="-0.12021">
        <ele>633.17</ele>
        <time>2013-12-07T14:59:55Z</time>
      </trkpt>
      <trkpt lat="42.9947" lon="-0.12009">
        <ele>635.57</ele>
        <time>2013-12-07T14:59:59Z</time>
      </trkpt>
      <trkpt lat="42.99477" lon="-0.11999">
        <ele>637.49</ele>
        <time>2013-12-07T15:00:03Z</time>
      </trkpt>
      <trkpt lat="42.9948" lon="-0.11996">
        <ele>633.65</ele>
        <time>2013-12-07T15:00:13Z</time>
      </trkpt>
      <trkpt lat="42.9948" lon="-0.11996">
        <ele>636.05</ele>
        <time>2013-12-07T15:00:14Z</time>
      </trkpt>
      <trkpt lat="42.9948" lon="-0.11996">
        <ele>639.41</ele>
        <time>2013-12-07T15:00:15Z</time>
      </trkpt>
      <trkpt lat="42.9948" lon="-0.11996">
        <ele>639.41</ele>
        <time>2013-12-07T15:00:16Z</time>
      </trkpt>
      <trkpt lat="42.9948" lon="-0.11996">
        <ele>637.97</ele>
        <time>2013-12-07T15:00:18Z</time>
      </trkpt>
      <trkpt lat="42.9948" lon="-0.11994">
        <ele>637.97</ele>
        <time>2013-12-07T15:00:43Z</time>
      </trkpt>
      <trkpt lat="42.9948" lon="-0.11995">
        <ele>637.97</ele>
        <time>2013-12-07T15:01:07Z</time>
      </trkpt>
      <trkpt lat="42.99481" lon="-0.11996">
        <ele>637.97</ele>
        <time>2013-12-07T15:01:28Z</time>
      </trkpt>
      <trkpt lat="42.99482" lon="-0.11995">
        <ele>633.65</ele>
        <time>2013-12-07T15:01:40Z</time>
      </trkpt>
      <trkpt lat="42.99482" lon="-0.11994">
        <ele>637.49</ele>
        <time>2013-12-07T15:01:41Z</time>
      </trkpt>
      <trkpt lat="42.99482" lon="-0.11993">
        <ele>637.49</ele>
        <time>2013-12-07T15:02:09Z</time>
      </trkpt>
      <trkpt lat="42.99481" lon="-0.11995">
        <ele>637.97</ele>
        <time>2013-12-07T15:02:30Z</time>
      </trkpt>
      <trkpt lat="42.99481" lon="-0.11995">
        <ele>637.01</ele>
        <time>2013-12-07T15:02:52Z</time>
      </trkpt>
      <trkpt lat="42.99481" lon="-0.11995">
        <ele>637.49</ele>
        <time>2013-12-07T15:03:17Z</time>
      </trkpt>
      <trkpt lat="42.9948" lon="-0.11994">
        <ele>637.49</ele>
        <time>2013-12-07T15:03:46Z</time>
      </trkpt>
      <trkpt lat="42.99481" lon="-0.11994">
        <ele>637.97</ele>
        <time>2013-12-07T15:04:11Z</time>
      </trkpt>
      <trkpt lat="42.99481" lon="-0.11995">
        <ele>637.49</ele>
        <time>2013-12-07T15:04:32Z</time>
      </trkpt>
      <trkpt lat="42.99481" lon="-0.11995">
        <ele>637.49</ele>
        <time>2013-12-07T15:04:58Z</time>
      </trkpt>
      <trkpt lat="42.99482" lon="-0.11996">
        <ele>637.49</ele>
        <time>2013-12-07T15:05:21Z</time>
      </trkpt>
      <trkpt lat="42.99482" lon="-0.11996">
        <ele>637.49</ele>
        <time>2013-12-07T15:05:27Z</time>
      </trkpt>
      <trkpt lat="42.99488" lon="-0.11959">
        <ele>634.61</ele>
        <time>2013-12-07T15:05:37Z</time>
      </trkpt>
      <trkpt lat="42.9949" lon="-0.11948">
        <ele>634.13</ele>
        <time>2013-12-07T15:05:39Z</time>
      </trkpt>
      <trkpt lat="42.99499" lon="-0.11877">
        <ele>630.28</ele>
        <time>2013-12-07T15:05:49Z</time>
      </trkpt>
      <trkpt lat="42.99502" lon="-0.11855">
        <ele>628.84</ele>
        <time>2013-12-07T15:05:52Z</time>
      </trkpt>
      <trkpt lat="42.99506" lon="-0.11841">
        <ele>628.36</ele>
        <time>2013-12-07T15:05:54Z</time>
      </trkpt>
      <trkpt lat="42.99508" lon="-0.11834">
        <ele>627.88</ele>
        <time>2013-12-07T15:05:55Z</time>
      </trkpt>
      <trkpt lat="42.99528" lon="-0.11792">
        <ele>624.51</ele>
        <time>2013-12-07T15:06:01Z</time>
      </trkpt>
      <trkpt lat="42.99536" lon="-0.11779">
        <ele>623.55</ele>
        <time>2013-12-07T15:06:03Z</time>
      </trkpt>
      <trkpt lat="42.99564" lon="-0.11764">
        <ele>621.15</ele>
        <time>2013-12-07T15:06:08Z</time>
      </trkpt>
      <trkpt lat="42.99583" lon="-0.11762">
        <ele>619.23</ele>
        <time>2013-12-07T15:06:11Z</time>
      </trkpt>
      <trkpt lat="42.99616" lon="-0.11757">
        <ele>615.86</ele>
        <time>2013-12-07T15:06:16Z</time>
      </trkpt>
      <trkpt lat="42.99652" lon="-0.11746">
        <ele>612.98</ele>
        <time>2013-12-07T15:06:22Z</time>
      </trkpt>
      <trkpt lat="42.99664" lon="-0.11742">
        <ele>612.02</ele>
        <time>2013-12-07T15:06:24Z</time>
      </trkpt>
      <trkpt lat="42.99696" lon="-0.11732">
        <ele>608.65</ele>
        <time>2013-12-07T15:06:29Z</time>
      </trkpt>
      <trkpt lat="42.99702" lon="-0.11731">
        <ele>608.65</ele>
        <time>2013-12-07T15:06:30Z</time>
      </trkpt>
      <trkpt lat="42.99715" lon="-0.11727">
        <ele>607.21</ele>
        <time>2013-12-07T15:06:32Z</time>
      </trkpt>
      <trkpt lat="42.99739" lon="-0.11719">
        <ele>603.36</ele>
        <time>2013-12-07T15:06:36Z</time>
      </trkpt>
      <trkpt lat="42.99763" lon="-0.11704">
        <ele>600.48</ele>
        <time>2013-12-07T15:06:40Z</time>
      </trkpt>
      <trkpt lat="42.99781" lon="-0.11688">
        <ele>599.04</ele>
        <time>2013-12-07T15:06:43Z</time>
      </trkpt>
      <trkpt lat="42.99793" lon="-0.11677">
        <ele>597.6</ele>
        <time>2013-12-07T15:06:45Z</time>
      </trkpt>
      <trkpt lat="42.99817" lon="-0.11641">
        <ele>594.71</ele>
        <time>2013-12-07T15:06:50Z</time>
      </trkpt>
      <trkpt lat="42.99821" lon="-0.11633">
        <ele>593.75</ele>
        <time>2013-12-07T15:06:51Z</time>
      </trkpt>
      <trkpt lat="42.99833" lon="-0.11609">
        <ele>592.31</ele>
        <time>2013-12-07T15:06:54Z</time>
      </trkpt>
      <trkpt lat="42.99836" lon="-0.11601">
        <ele>591.83</ele>
        <time>2013-12-07T15:06:55Z</time>
      </trkpt>
      <trkpt lat="42.99841" lon="-0.11585">
        <ele>590.39</ele>
        <time>2013-12-07T15:06:57Z</time>
      </trkpt>
      <trkpt lat="42.99846" lon="-0.11557">
        <ele>588.46</ele>
        <time>2013-12-07T15:07:00Z</time>
      </trkpt>
      <trkpt lat="42.99844" lon="-0.11518">
        <ele>586.54</ele>
        <time>2013-12-07T15:07:04Z</time>
      </trkpt>
      <trkpt lat="42.99856" lon="-0.11451">
        <ele>581.73</ele>
        <time>2013-12-07T15:07:11Z</time>
      </trkpt>
      <trkpt lat="42.99859" lon="-0.11441">
        <ele>581.25</ele>
        <time>2013-12-07T15:07:12Z</time>
      </trkpt>
      <trkpt lat="42.99862" lon="-0.11419">
        <ele>579.81</ele>
        <time>2013-12-07T15:07:14Z</time>
      </trkpt>
      <trkpt lat="42.99861" lon="-0.11359">
        <ele>577.41</ele>
        <time>2013-12-07T15:07:20Z</time>
      </trkpt>
      <trkpt lat="42.99863" lon="-0.1133">
        <ele>575.01</ele>
        <time>2013-12-07T15:07:23Z</time>
      </trkpt>
      <trkpt lat="42.99874" lon="-0.11294">
        <ele>573.56</ele>
        <time>2013-12-07T15:07:27Z</time>
      </trkpt>
      <trkpt lat="42.99883" lon="-0.11278">
        <ele>571.64</ele>
        <time>2013-12-07T15:07:29Z</time>
      </trkpt>
      <trkpt lat="42.9991" lon="-0.11238">
        <ele>568.28</ele>
        <time>2013-12-07T15:07:35Z</time>
      </trkpt>
      <trkpt lat="42.99918" lon="-0.11225">
        <ele>567.32</ele>
        <time>2013-12-07T15:07:37Z</time>
      </trkpt>
      <trkpt lat="42.99923" lon="-0.11211">
        <ele>566.35</ele>
        <time>2013-12-07T15:07:39Z</time>
      </trkpt>
      <trkpt lat="42.99927" lon="-0.11196">
        <ele>565.39</ele>
        <time>2013-12-07T15:07:41Z</time>
      </trkpt>
      <trkpt lat="42.99928" lon="-0.11181">
        <ele>564.43</ele>
        <time>2013-12-07T15:07:43Z</time>
      </trkpt>
      <trkpt lat="42.99911" lon="-0.11146">
        <ele>562.03</ele>
        <time>2013-12-07T15:07:50Z</time>
      </trkpt>
      <trkpt lat="42.99917" lon="-0.11163">
        <ele>560.59</ele>
        <time>2013-12-07T15:07:56Z</time>
      </trkpt>
      <trkpt lat="42.99913" lon="-0.11188">
        <ele>557.22</ele>
        <time>2013-12-07T15:08:02Z</time>
      </trkpt>
      <trkpt lat="42.9991" lon="-0.11194">
        <ele>555.78</ele>
        <time>2013-12-07T15:08:04Z</time>
      </trkpt>
      <trkpt lat="42.99909" lon="-0.1119">
        <ele>555.3</ele>
        <time>2013-12-07T15:08:06Z</time>
      </trkpt>
      <trkpt lat="42.99906" lon="-0.11175">
        <ele>551.93</ele>
        <time>2013-12-07T15:08:10Z</time>
      </trkpt>
      <trkpt lat="42.99904" lon="-0.11182">
        <ele>550.49</ele>
        <time>2013-12-07T15:08:12Z</time>
      </trkpt>
      <trkpt lat="42.99894" lon="-0.11191">
        <ele>547.61</ele>
        <time>2013-12-07T15:08:15Z</time>
      </trkpt>
      <trkpt lat="42.9986" lon="-0.11206">
        <ele>546.17</ele>
        <time>2013-12-07T15:08:23Z</time>
      </trkpt>
      <trkpt lat="42.99859" lon="-0.11206">
        <ele>546.65</ele>
        <time>2013-12-07T15:08:24Z</time>
      </trkpt>
      <trkpt lat="42.99845" lon="-0.11209">
        <ele>546.17</ele>
        <time>2013-12-07T15:08:30Z</time>
      </trkpt>
      <trkpt lat="42.99836" lon="-0.11206">
        <ele>542.32</ele>
        <time>2013-12-07T15:08:33Z</time>
      </trkpt>
      <trkpt lat="42.99833" lon="-0.11205">
        <ele>540.88</ele>
        <time>2013-12-07T15:08:35Z</time>
      </trkpt>
      <trkpt lat="42.99833" lon="-0.11203">
        <ele>540.4</ele>
        <time>2013-12-07T15:08:38Z</time>
      </trkpt>
      <trkpt lat="42.99841" lon="-0.11197">
        <ele>539.44</ele>
        <time>2013-12-07T15:08:42Z</time>
      </trkpt>
      <trkpt lat="42.99855" lon="-0.11194">
        <ele>538.48</ele>
        <time>2013-12-07T15:08:46Z</time>
      </trkpt>
      <trkpt lat="42.99867" lon="-0.11194">
        <ele>537.03</ele>
        <time>2013-12-07T15:08:50Z</time>
      </trkpt>
      <trkpt lat="42.99871" lon="-0.11167">
        <ele>533.67</ele>
        <time>2013-12-07T15:08:56Z</time>
      </trkpt>
      <trkpt lat="42.9987" lon="-0.11163">
        <ele>533.19</ele>
        <time>2013-12-07T15:08:57Z</time>
      </trkpt>
      <trkpt lat="42.99867" lon="-0.11144">
        <ele>529.82</ele>
        <time>2013-12-07T15:09:03Z</time>
      </trkpt>
      <trkpt lat="42.99866" lon="-0.11141">
        <ele>529.34</ele>
        <time>2013-12-07T15:09:04Z</time>
      </trkpt>
      <trkpt lat="42.99867" lon="-0.1112">
        <ele>526.94</ele>
        <time>2013-12-07T15:09:08Z</time>
      </trkpt>
      <trkpt lat="42.99871" lon="-0.11093">
        <ele>525.98</ele>
        <time>2013-12-07T15:09:17Z</time>
      </trkpt>
      <trkpt lat="42.99872" lon="-0.11086">
        <ele>525.98</ele>
        <time>2013-12-07T15:09:29Z</time>
      </trkpt>
      <trkpt lat="42.99872" lon="-0.11085">
        <ele>525.98</ele>
        <time>2013-12-07T15:09:49Z</time>
      </trkpt>
      <trkpt lat="42.99872" lon="-0.1108">
        <ele>525.02</ele>
        <time>2013-12-07T15:10:07Z</time>
      </trkpt>
      <trkpt lat="42.99873" lon="-0.11071">
        <ele>525.02</ele>
        <time>2013-12-07T15:10:14Z</time>
      </trkpt>
      <trkpt lat="42.99867" lon="-0.11078">
        <ele>522.13</ele>
        <time>2013-12-07T15:10:18Z</time>
      </trkpt>
      <trkpt lat="42.99864" lon="-0.11082">
        <ele>521.17</ele>
        <time>2013-12-07T15:10:20Z</time>
      </trkpt>
      <trkpt lat="42.99863" lon="-0.11086">
        <ele>519.73</ele>
        <time>2013-12-07T15:10:23Z</time>
      </trkpt>
      <trkpt lat="42.99855" lon="-0.11106">
        <ele>516.37</ele>
        <time>2013-12-07T15:10:29Z</time>
      </trkpt>
      <trkpt lat="42.99851" lon="-0.11112">
        <ele>515.4</ele>
        <time>2013-12-07T15:10:31Z</time>
      </trkpt>
      <trkpt lat="42.9985" lon="-0.11115">
        <ele>515.4</ele>
        <time>2013-12-07T15:10:45Z</time>
      </trkpt>
      <trkpt lat="42.9985" lon="-0.11115">
        <ele>514.92</ele>
        <time>2013-12-07T15:10:46Z</time>
      </trkpt>
      <trkpt lat="42.99846" lon="-0.11124">
        <ele>513.96</ele>
        <time>2013-12-07T15:10:51Z</time>
      </trkpt>
      <trkpt lat="42.99843" lon="-0.11133">
        <ele>512.52</ele>
        <time>2013-12-07T15:10:54Z</time>
      </trkpt>
      <trkpt lat="42.99839" lon="-0.11137">
        <ele>511.08</ele>
        <time>2013-12-07T15:10:56Z</time>
      </trkpt>
      <trkpt lat="42.99834" lon="-0.11132">
        <ele>507.71</ele>
        <time>2013-12-07T15:11:01Z</time>
      </trkpt>
      <trkpt lat="42.99831" lon="-0.11134">
        <ele>506.75</ele>
        <time>2013-12-07T15:11:03Z</time>
      </trkpt>
      <trkpt lat="42.99813" lon="-0.11156">
        <ele>504.83</ele>
        <time>2013-12-07T15:11:10Z</time>
      </trkpt>
      <trkpt lat="42.99805" lon="-0.11166">
        <ele>502.43</ele>
        <time>2013-12-07T15:11:12Z</time>
      </trkpt>
      <trkpt lat="42.99771" lon="-0.11189">
        <ele>498.1</ele>
        <time>2013-12-07T15:11:19Z</time>
      </trkpt>
      <trkpt lat="42.9977" lon="-0.1118">
        <ele>494.74</ele>
        <time>2013-12-07T15:11:24Z</time>
      </trkpt>
      <trkpt lat="42.99771" lon="-0.11178">
        <ele>494.74</ele>
        <time>2013-12-07T15:11:25Z</time>
      </trkpt>
      <trkpt lat="42.99764" lon="-0.11176">
        <ele>492.33</ele>
        <time>2013-12-07T15:11:29Z</time>
      </trkpt>
      <trkpt lat="42.99754" lon="-0.11178">
        <ele>488.49</ele>
        <time>2013-12-07T15:11:33Z</time>
      </trkpt>
      <trkpt lat="42.99747" lon="-0.11168">
        <ele>486.08</ele>
        <time>2013-12-07T15:11:37Z</time>
      </trkpt>
      <trkpt lat="42.99748" lon="-0.11165">
        <ele>485.6</ele>
        <time>2013-12-07T15:11:38Z</time>
      </trkpt>
      <trkpt lat="42.99752" lon="-0.11159">
        <ele>485.6</ele>
        <time>2013-12-07T15:11:40Z</time>
      </trkpt>
      <trkpt lat="42.99765" lon="-0.11141">
        <ele>483.68</ele>
        <time>2013-12-07T15:11:45Z</time>
      </trkpt>
      <trkpt lat="42.99769" lon="-0.11131">
        <ele>483.2</ele>
        <time>2013-12-07T15:11:47Z</time>
      </trkpt>
      <trkpt lat="42.99771" lon="-0.1112">
        <ele>482.72</ele>
        <time>2013-12-07T15:11:49Z</time>
      </trkpt>
      <trkpt lat="42.99766" lon="-0.11099">
        <ele>481.76</ele>
        <time>2013-12-07T15:11:52Z</time>
      </trkpt>
      <trkpt lat="42.99775" lon="-0.11082">
        <ele>482.24</ele>
        <time>2013-12-07T15:12:01Z</time>
      </trkpt>
      <trkpt lat="42.99779" lon="-0.11076">
        <ele>482.24</ele>
        <time>2013-12-07T15:12:06Z</time>
      </trkpt>
      <trkpt lat="42.99783" lon="-0.11066">
        <ele>481.76</ele>
        <time>2013-12-07T15:12:10Z</time>
      </trkpt>
      <trkpt lat="42.99789" lon="-0.11037">
        <ele>483.68</ele>
        <time>2013-12-07T15:12:21Z</time>
      </trkpt>
      <trkpt lat="42.99794" lon="-0.11033">
        <ele>483.68</ele>
        <time>2013-12-07T15:12:23Z</time>
      </trkpt>
      <trkpt lat="42.99799" lon="-0.1102">
        <ele>483.68</ele>
        <time>2013-12-07T15:12:28Z</time>
      </trkpt>
      <trkpt lat="42.99797" lon="-0.11006">
        <ele>483.2</ele>
        <time>2013-12-07T15:12:32Z</time>
      </trkpt>
      <trkpt lat="42.99786" lon="-0.10981">
        <ele>484.16</ele>
        <time>2013-12-07T15:12:38Z</time>
      </trkpt>
      <trkpt lat="42.99783" lon="-0.10978">
        <ele>484.64</ele>
        <time>2013-12-07T15:12:40Z</time>
      </trkpt>
      <trkpt lat="42.99778" lon="-0.10974">
        <ele>486.56</ele>
        <time>2013-12-07T15:12:43Z</time>
      </trkpt>
      <trkpt lat="42.99776" lon="-0.10972">
        <ele>487.05</ele>
        <time>2013-12-07T15:12:44Z</time>
      </trkpt>
      <trkpt lat="42.99771" lon="-0.10965">
        <ele>488.49</ele>
        <time>2013-12-07T15:12:48Z</time>
      </trkpt>
      <trkpt lat="42.99772" lon="-0.1093">
        <ele>484.16</ele>
        <time>2013-12-07T15:12:54Z</time>
      </trkpt>
      <trkpt lat="42.99773" lon="-0.10923">
        <ele>482.24</ele>
        <time>2013-12-07T15:12:55Z</time>
      </trkpt>
      <trkpt lat="42.99776" lon="-0.10907">
        <ele>480.32</ele>
        <time>2013-12-07T15:12:57Z</time>
      </trkpt>
      <trkpt lat="42.99778" lon="-0.10897">
        <ele>479.84</ele>
        <time>2013-12-07T15:12:58Z</time>
      </trkpt>
      <trkpt lat="42.99782" lon="-0.10879">
        <ele>477.91</ele>
        <time>2013-12-07T15:13:00Z</time>
      </trkpt>
      <trkpt lat="42.9979" lon="-0.10848">
        <ele>475.03</ele>
        <time>2013-12-07T15:13:05Z</time>
      </trkpt>
      <trkpt lat="42.99801" lon="-0.10822">
        <ele>470.22</ele>
        <time>2013-12-07T15:13:09Z</time>
      </trkpt>
      <trkpt lat="42.99809" lon="-0.10791">
        <ele>468.3</ele>
        <time>2013-12-07T15:13:12Z</time>
      </trkpt>
      <trkpt lat="42.99821" lon="-0.10769">
        <ele>468.3</ele>
        <time>2013-12-07T15:13:15Z</time>
      </trkpt>
      <trkpt lat="42.99849" lon="-0.10737">
        <ele>466.86</ele>
        <time>2013-12-07T15:13:22Z</time>
      </trkpt>
      <trkpt lat="42.99867" lon="-0.10731">
        <ele>465.9</ele>
        <time>2013-12-07T15:13:26Z</time>
      </trkpt>
      <trkpt lat="42.9987" lon="-0.10726">
        <ele>466.38</ele>
        <time>2013-12-07T15:13:32Z</time>
      </trkpt>
      <trkpt lat="42.99867" lon="-0.10733">
        <ele>466.38</ele>
        <time>2013-12-07T15:13:39Z</time>
      </trkpt>
      <trkpt lat="42.99868" lon="-0.10724">
        <ele>466.86</ele>
        <time>2013-12-07T15:13:48Z</time>
      </trkpt>
      <trkpt lat="42.99879" lon="-0.10715">
        <ele>466.38</ele>
        <time>2013-12-07T15:13:54Z</time>
      </trkpt>
      <trkpt lat="42.9989" lon="-0.10703">
        <ele>466.86</ele>
        <time>2013-12-07T15:13:59Z</time>
      </trkpt>
      <trkpt lat="42.99897" lon="-0.10696">
        <ele>466.86</ele>
        <time>2013-12-07T15:14:04Z</time>
      </trkpt>
      <trkpt lat="42.999" lon="-0.1069">
        <ele>466.86</ele>
        <time>2013-12-07T15:14:08Z</time>
      </trkpt>
      <trkpt lat="42.99909" lon="-0.10678">
        <ele>467.34</ele>
        <time>2013-12-07T15:14:14Z</time>
      </trkpt>
      <trkpt lat="42.99914" lon="-0.10671">
        <ele>466.86</ele>
        <time>2013-12-07T15:14:18Z</time>
      </trkpt>
      <trkpt lat="42.99929" lon="-0.10656">
        <ele>467.82</ele>
        <time>2013-12-07T15:14:26Z</time>
      </trkpt>
      <trkpt lat="42.99945" lon="-0.10633">
        <ele>469.26</ele>
        <time>2013-12-07T15:14:36Z</time>
      </trkpt>
      <trkpt lat="42.99951" lon="-0.10623">
        <ele>468.78</ele>
        <time>2013-12-07T15:14:40Z</time>
      </trkpt>
      <trkpt lat="42.99955" lon="-0.10617">
        <ele>468.78</ele>
        <time>2013-12-07T15:14:42Z</time>
      </trkpt>
      <trkpt lat="42.99963" lon="-0.10595">
        <ele>467.82</ele>
        <time>2013-12-07T15:14:49Z</time>
      </trkpt>
      <trkpt lat="42.99967" lon="-0.10575">
        <ele>466.86</ele>
        <time>2013-12-07T15:14:53Z</time>
      </trkpt>
      <trkpt lat="42.99975" lon="-0.10538">
        <ele>463.97</ele>
        <time>2013-12-07T15:14:58Z</time>
      </trkpt>
      <trkpt lat="42.99983" lon="-0.10497">
        <ele>461.57</ele>
        <time>2013-12-07T15:15:03Z</time>
      </trkpt>
      <trkpt lat="42.99979" lon="-0.1048">
        <ele>458.21</ele>
        <time>2013-12-07T15:15:07Z</time>
      </trkpt>
      <trkpt lat="42.99987" lon="-0.1045">
        <ele>455.8</ele>
        <time>2013-12-07T15:15:13Z</time>
      </trkpt>
      <trkpt lat="42.9999" lon="-0.10429">
        <ele>454.84</ele>
        <time>2013-12-07T15:15:16Z</time>
      </trkpt>
      <trkpt lat="42.99989" lon="-0.10391">
        <ele>454.84</ele>
        <time>2013-12-07T15:15:25Z</time>
      </trkpt>
      <trkpt lat="42.99987" lon="-0.10364">
        <ele>453.88</ele>
        <time>2013-12-07T15:15:33Z</time>
      </trkpt>
      <trkpt lat="42.99979" lon="-0.10325">
        <ele>453.4</ele>
        <time>2013-12-07T15:15:46Z</time>
      </trkpt>
      <trkpt lat="42.99979" lon="-0.10328">
        <ele>453.4</ele>
        <time>2013-12-07T15:15:50Z</time>
      </trkpt>
      <trkpt lat="42.9998" lon="-0.10324">
        <ele>453.88</ele>
        <time>2013-12-07T15:15:54Z</time>
      </trkpt>
      <trkpt lat="42.99965" lon="-0.10271">
        <ele>452.44</ele>
        <time>2013-12-07T15:16:07Z</time>
      </trkpt>
      <trkpt lat="42.99962" lon="-0.1026">
        <ele>452.44</ele>
        <time>2013-12-07T15:16:09Z</time>
      </trkpt>
      <trkpt lat="42.99961" lon="-0.10254">
        <ele>452.44</ele>
        <time>2013-12-07T15:16:10Z</time>
      </trkpt>
      <trkpt lat="42.99959" lon="-0.10249">
        <ele>452.44</ele>
        <time>2013-12-07T15:16:11Z</time>
      </trkpt>
      <trkpt lat="42.99956" lon="-0.10243">
        <ele>451.96</ele>
        <time>2013-12-07T15:16:12Z</time>
      </trkpt>
      <trkpt lat="42.99954" lon="-0.10238">
        <ele>451.48</ele>
        <time>2013-12-07T15:16:13Z</time>
      </trkpt>
      <trkpt lat="42.99952" lon="-0.10232">
        <ele>451.96</ele>
        <time>2013-12-07T15:16:14Z</time>
      </trkpt>
      <trkpt lat="42.99946" lon="-0.10214">
        <ele>451.96</ele>
        <time>2013-12-07T15:16:17Z</time>
      </trkpt>
      <trkpt lat="42.99943" lon="-0.10208">
        <ele>451.96</ele>
        <time>2013-12-07T15:16:18Z</time>
      </trkpt>
      <trkpt lat="42.99941" lon="-0.10203">
        <ele>451.96</ele>
        <time>2013-12-07T15:16:19Z</time>
      </trkpt>
      <trkpt lat="42.99937" lon="-0.10191">
        <ele>451.96</ele>
        <time>2013-12-07T15:16:21Z</time>
      </trkpt>
      <trkpt lat="42.99935" lon="-0.10186">
        <ele>451.48</ele>
        <time>2013-12-07T15:16:22Z</time>
      </trkpt>
      <trkpt lat="42.99919" lon="-0.101">
        <ele>449.07</ele>
        <time>2013-12-07T15:16:34Z</time>
      </trkpt>
      <trkpt lat="42.99923" lon="-0.09977">
        <ele>445.71</ele>
        <time>2013-12-07T15:16:49Z</time>
      </trkpt>
      <trkpt lat="42.99923" lon="-0.09959">
        <ele>445.71</ele>
        <time>2013-12-07T15:16:56Z</time>
      </trkpt>
      <trkpt lat="42.99933" lon="-0.09899">
        <ele>443.79</ele>
        <time>2013-12-07T15:17:08Z</time>
      </trkpt>
      <trkpt lat="42.99938" lon="-0.09877">
        <ele>443.79</ele>
        <time>2013-12-07T15:17:16Z</time>
      </trkpt>
      <trkpt lat="42.99942" lon="-0.09868">
        <ele>443.31</ele>
        <time>2013-12-07T15:17:18Z</time>
      </trkpt>
      <trkpt lat="42.99965" lon="-0.09797">
        <ele>441.86</ele>
        <time>2013-12-07T15:17:30Z</time>
      </trkpt>
      <trkpt lat="42.99969" lon="-0.09784">
        <ele>440.9</ele>
        <time>2013-12-07T15:17:32Z</time>
      </trkpt>
      <trkpt lat="42.99981" lon="-0.09752">
        <ele>440.42</ele>
        <time>2013-12-07T15:17:37Z</time>
      </trkpt>
      <trkpt lat="42.99986" lon="-0.09738">
        <ele>439.94</ele>
        <time>2013-12-07T15:17:39Z</time>
      </trkpt>
      <trkpt lat="42.99988" lon="-0.09712">
        <ele>438.98</ele>
        <time>2013-12-07T15:17:43Z</time>
      </trkpt>
      <trkpt lat="42.99988" lon="-0.09707">
        <ele>439.46</ele>
        <time>2013-12-07T15:17:46Z</time>
      </trkpt>
      <trkpt lat="42.99987" lon="-0.09689">
        <ele>439.46</ele>
        <time>2013-12-07T15:17:51Z</time>
      </trkpt>
      <trkpt lat="42.99982" lon="-0.09681">
        <ele>439.46</ele>
        <time>2013-12-07T15:17:53Z</time>
      </trkpt>
      <trkpt lat="42.99987" lon="-0.09653">
        <ele>438.5</ele>
        <time>2013-12-07T15:17:59Z</time>
      </trkpt>
      <trkpt lat="43.00004" lon="-0.09629">
        <ele>438.98</ele>
        <time>2013-12-07T15:18:05Z</time>
      </trkpt>
      <trkpt lat="43.00017" lon="-0.09621">
        <ele>437.54</ele>
        <time>2013-12-07T15:18:08Z</time>
      </trkpt>
      <trkpt lat="43.00031" lon="-0.09606">
        <ele>436.1</ele>
        <time>2013-12-07T15:18:11Z</time>
      </trkpt>
      <trkpt lat="43.00054" lon="-0.0959">
        <ele>435.61</ele>
        <time>2013-12-07T15:18:15Z</time>
      </trkpt>
      <trkpt lat="43.00093" lon="-0.09565">
        <ele>434.65</ele>
        <time>2013-12-07T15:18:22Z</time>
      </trkpt>
      <trkpt lat="43.00119" lon="-0.09534">
        <ele>433.21</ele>
        <time>2013-12-07T15:18:28Z</time>
      </trkpt>
      <trkpt lat="43.00132" lon="-0.09522">
        <ele>433.69</ele>
        <time>2013-12-07T15:18:31Z</time>
      </trkpt>
      <trkpt lat="43.00154" lon="-0.095">
        <ele>432.73</ele>
        <time>2013-12-07T15:18:36Z</time>
      </trkpt>
      <trkpt lat="43.00167" lon="-0.09489">
        <ele>432.25</ele>
        <time>2013-12-07T15:18:39Z</time>
      </trkpt>
      <trkpt lat="43.00208" lon="-0.09449">
        <ele>430.81</ele>
        <time>2013-12-07T15:18:50Z</time>
      </trkpt>
      <trkpt lat="43.00272" lon="-0.09388">
        <ele>428.89</ele>
        <time>2013-12-07T15:19:04Z</time>
      </trkpt>
      <trkpt lat="43.00285" lon="-0.09408">
        <ele>429.85</ele>
        <time>2013-12-07T15:19:09Z</time>
      </trkpt>
      <trkpt lat="43.00283" lon="-0.09425">
        <ele>430.33</ele>
        <time>2013-12-07T15:19:12Z</time>
      </trkpt>
      <trkpt lat="43.00297" lon="-0.09439">
        <ele>429.85</ele>
        <time>2013-12-07T15:19:17Z</time>
      </trkpt>
      <trkpt lat="43.0033" lon="-0.09435">
        <ele>429.85</ele>
        <time>2013-12-07T15:19:24Z</time>
      </trkpt>
      <trkpt lat="43.00369" lon="-0.0943">
        <ele>429.37</ele>
        <time>2013-12-07T15:19:33Z</time>
      </trkpt>
      <trkpt lat="43.00421" lon="-0.09421">
        <ele>429.37</ele>
        <time>2013-12-07T15:19:46Z</time>
      </trkpt>
      <trkpt lat="43.00467" lon="-0.09419">
        <ele>427.92</ele>
        <time>2013-12-07T15:19:57Z</time>
      </trkpt>
      <trkpt lat="43.00481" lon="-0.09419">
        <ele>427.44</ele>
        <time>2013-12-07T15:20:01Z</time>
      </trkpt>
      <trkpt lat="43.0049" lon="-0.09417">
        <ele>427.44</ele>
        <time>2013-12-07T15:20:03Z</time>
      </trkpt>
      <trkpt lat="43.00502" lon="-0.09432">
        <ele>427.44</ele>
        <time>2013-12-07T15:20:10Z</time>
      </trkpt>
      <trkpt lat="43.005" lon="-0.09437">
        <ele>427.44</ele>
        <time>2013-12-07T15:20:12Z</time>
      </trkpt>
      <trkpt lat="43.00508" lon="-0.09501">
        <ele>427.44</ele>
        <time>2013-12-07T15:20:28Z</time>
      </trkpt>
      <trkpt lat="43.00508" lon="-0.09509">
        <ele>427.92</ele>
        <time>2013-12-07T15:20:30Z</time>
      </trkpt>
      <trkpt lat="43.00496" lon="-0.09515">
        <ele>428.89</ele>
        <time>2013-12-07T15:20:35Z</time>
      </trkpt>
      <trkpt lat="43.00474" lon="-0.09518">
        <ele>429.37</ele>
        <time>2013-12-07T15:20:43Z</time>
      </trkpt>
      <trkpt lat="43.00472" lon="-0.0954">
        <ele>428.89</ele>
        <time>2013-12-07T15:20:50Z</time>
      </trkpt>
      <trkpt lat="43.00476" lon="-0.09558">
        <ele>429.37</ele>
        <time>2013-12-07T15:20:56Z</time>
      </trkpt>
      <trkpt lat="43.00484" lon="-0.0956">
        <ele>428.89</ele>
        <time>2013-12-07T15:21:01Z</time>
      </trkpt>
      <trkpt lat="43.00521" lon="-0.09556">
        <ele>427.92</ele>
        <time>2013-12-07T15:21:15Z</time>
      </trkpt>
      <trkpt lat="43.00558" lon="-0.09577">
        <ele>427.92</ele>
        <time>2013-12-07T15:21:28Z</time>
      </trkpt>
      <trkpt lat="43.00573" lon="-0.09594">
        <ele>427.92</ele>
        <time>2013-12-07T15:21:34Z</time>
      </trkpt>
      <trkpt lat="43.00584" lon="-0.09586">
        <ele>427.44</ele>
        <time>2013-12-07T15:21:40Z</time>
      </trkpt>
      <trkpt lat="43.00589" lon="-0.09578">
        <ele>426.96</ele>
        <time>2013-12-07T15:21:42Z</time>
      </trkpt>
      <trkpt lat="43.00612" lon="-0.09574">
        <ele>426.48</ele>
        <time>2013-12-07T15:21:48Z</time>
      </trkpt>
      <trkpt lat="43.0065" lon="-0.09549">
        <ele>425.52</ele>
        <time>2013-12-07T15:21:57Z</time>
      </trkpt>
      <trkpt lat="43.00658" lon="-0.09542">
        <ele>425.52</ele>
        <time>2013-12-07T15:21:59Z</time>
      </trkpt>
      <trkpt lat="43.00679" lon="-0.09529">
        <ele>424.56</ele>
        <time>2013-12-07T15:22:04Z</time>
      </trkpt>
      <trkpt lat="43.00689" lon="-0.09522">
        <ele>424.08</ele>
        <time>2013-12-07T15:22:08Z</time>
      </trkpt>
      <trkpt lat="43.00706" lon="-0.09512">
        <ele>422.64</ele>
        <time>2013-12-07T15:22:15Z</time>
      </trkpt>
      <trkpt lat="43.00737" lon="-0.09498">
        <ele>422.64</ele>
        <time>2013-12-07T15:22:24Z</time>
      </trkpt>
      <trkpt lat="43.00732" lon="-0.09497">
        <ele>422.64</ele>
        <time>2013-12-07T15:22:31Z</time>
      </trkpt>
      <trkpt lat="43.00732" lon="-0.09496">
        <ele>422.64</ele>
        <time>2013-12-07T15:22:32Z</time>
      </trkpt>
      <trkpt lat="43.00736" lon="-0.09499">
        <ele>423.12</ele>
        <time>2013-12-07T15:22:40Z</time>
      </trkpt>
      <trkpt lat="43.00736" lon="-0.09499">
        <ele>422.64</ele>
        <time>2013-12-07T15:22:45Z</time>
      </trkpt>
      <trkpt lat="43.00733" lon="-0.09499">
        <ele>422.64</ele>
        <time>2013-12-07T15:22:56Z</time>
      </trkpt>
      <trkpt lat="43.00732" lon="-0.09498">
        <ele>422.64</ele>
        <time>2013-12-07T15:23:05Z</time>
      </trkpt>
      <trkpt lat="43.00731" lon="-0.09495">
        <ele>422.64</ele>
        <time>2013-12-07T15:23:09Z</time>
      </trkpt>
      <trkpt lat="43.00733" lon="-0.095">
        <ele>422.64</ele>
        <time>2013-12-07T15:23:14Z</time>
      </trkpt>
      <trkpt lat="43.0073" lon="-0.09493">
        <ele>422.64</ele>
        <time>2013-12-07T15:23:20Z</time>
      </trkpt>
      <trkpt lat="43.00733" lon="-0.09496">
        <ele>422.16</ele>
        <time>2013-12-07T15:23:29Z</time>
      </trkpt>
      <trkpt lat="43.00732" lon="-0.09497">
        <ele>422.64</ele>
        <time>2013-12-07T15:23:47Z</time>
      </trkpt>
      <trkpt lat="43.00731" lon="-0.09497">
        <ele>422.64</ele>
        <time>2013-12-07T15:24:13Z</time>
      </trkpt>
      <trkpt lat="43.00734" lon="-0.09498">
        <ele>422.64</ele>
        <time>2013-12-07T15:24:29Z</time>
      </trkpt>
      <trkpt lat="43.00738" lon="-0.09501">
        <ele>423.6</ele>
        <time>2013-12-07T15:24:38Z</time>
      </trkpt>
      <trkpt lat="43.00738" lon="-0.09497">
        <ele>422.64</ele>
        <time>2013-12-07T15:24:46Z</time>
      </trkpt>
    </trkseg>
  </trk>
</gpx>